<?xml version="1.0" encoding="UTF-8" standalone="no" ?>
<gpx xmlns="http://www.topografix.com/GPX/1/1" xmlns:xsi="http://www.w3.org/2001/XMLSchema-instance" xsi:schemaLocation="http://www.topografix.com/GPX/1/1 http://www.topografix.com/GPX/1/1/gpx.xsd" version="1.1" creator="VisuGPX - https://www.visugpx.com">
  <metadata>
    <name>Le Concors</name>
  </metadata>
  <trk>
    <name><![CDATA[01/03/2022 14:04:02  Le Concors]]></name>
    <trkseg>
      <trkpt lat="43.59095" lon="5.64294">
        <ele>411.60000610352</ele>
        <time>2022-03-01T13:04:02Z</time>
      </trkpt>
      <trkpt lat="43.59095" lon="5.64295">
        <ele>411.60000610352</ele>
        <time>2022-03-01T13:04:03Z</time>
      </trkpt>
      <trkpt lat="43.59094" lon="5.64281">
        <ele>411.60000610352</ele>
        <time>2022-03-01T13:04:22Z</time>
      </trkpt>
      <trkpt lat="43.59096" lon="5.64261">
        <ele>412.60000610352</ele>
        <time>2022-03-01T13:04:42Z</time>
      </trkpt>
      <trkpt lat="43.59105" lon="5.64248">
        <ele>412.60000610352</ele>
        <time>2022-03-01T13:04:52Z</time>
      </trkpt>
      <trkpt lat="43.59118" lon="5.64237">
        <ele>412.60000610352</ele>
        <time>2022-03-01T13:05:03Z</time>
      </trkpt>
      <trkpt lat="43.59129" lon="5.64227">
        <ele>414</ele>
        <time>2022-03-01T13:05:14Z</time>
      </trkpt>
      <trkpt lat="43.59135" lon="5.64224">
        <ele>414.60000610352</ele>
        <time>2022-03-01T13:05:18Z</time>
      </trkpt>
      <trkpt lat="43.59153" lon="5.64216">
        <ele>416.20001220703</ele>
        <time>2022-03-01T13:05:34Z</time>
      </trkpt>
      <trkpt lat="43.59172" lon="5.64203">
        <ele>417.79998779297</ele>
        <time>2022-03-01T13:05:50Z</time>
      </trkpt>
      <trkpt lat="43.59188" lon="5.64193">
        <ele>419</ele>
        <time>2022-03-01T13:06:06Z</time>
      </trkpt>
      <trkpt lat="43.59196" lon="5.64187">
        <ele>420.60000610352</ele>
        <time>2022-03-01T13:06:15Z</time>
      </trkpt>
      <trkpt lat="43.59209" lon="5.64179">
        <ele>423</ele>
        <time>2022-03-01T13:06:29Z</time>
      </trkpt>
      <trkpt lat="43.59215" lon="5.64174">
        <ele>424.39999389648</ele>
        <time>2022-03-01T13:06:36Z</time>
      </trkpt>
      <trkpt lat="43.59227" lon="5.64151">
        <ele>427.20001220703</ele>
        <time>2022-03-01T13:06:55Z</time>
      </trkpt>
      <trkpt lat="43.59228" lon="5.6415">
        <ele>427.20001220703</ele>
        <time>2022-03-01T13:06:56Z</time>
      </trkpt>
      <trkpt lat="43.59231" lon="5.64146">
        <ele>427.39999389648</ele>
        <time>2022-03-01T13:07:00Z</time>
      </trkpt>
      <trkpt lat="43.59237" lon="5.64129">
        <ele>428.79998779297</ele>
        <time>2022-03-01T13:07:14Z</time>
      </trkpt>
      <trkpt lat="43.59238" lon="5.64121">
        <ele>429.60000610352</ele>
        <time>2022-03-01T13:07:19Z</time>
      </trkpt>
      <trkpt lat="43.59235" lon="5.64094">
        <ele>431.79998779297</ele>
        <time>2022-03-01T13:07:39Z</time>
      </trkpt>
      <trkpt lat="43.59229" lon="5.64064">
        <ele>434.20001220703</ele>
        <time>2022-03-01T13:08:01Z</time>
      </trkpt>
      <trkpt lat="43.59222" lon="5.64041">
        <ele>436</ele>
        <time>2022-03-01T13:08:17Z</time>
      </trkpt>
      <trkpt lat="43.59211" lon="5.64021">
        <ele>436.60000610352</ele>
        <time>2022-03-01T13:08:34Z</time>
      </trkpt>
      <trkpt lat="43.59207" lon="5.64018">
        <ele>436.79998779297</ele>
        <time>2022-03-01T13:08:37Z</time>
      </trkpt>
      <trkpt lat="43.59191" lon="5.64005">
        <ele>438.79998779297</ele>
        <time>2022-03-01T13:08:53Z</time>
      </trkpt>
      <trkpt lat="43.59185" lon="5.64002">
        <ele>439.60000610352</ele>
        <time>2022-03-01T13:08:58Z</time>
      </trkpt>
      <trkpt lat="43.59172" lon="5.63989">
        <ele>441.79998779297</ele>
        <time>2022-03-01T13:09:13Z</time>
      </trkpt>
      <trkpt lat="43.59164" lon="5.63968">
        <ele>444.39999389648</ele>
        <time>2022-03-01T13:09:29Z</time>
      </trkpt>
      <trkpt lat="43.59157" lon="5.63937">
        <ele>446.60000610352</ele>
        <time>2022-03-01T13:09:49Z</time>
      </trkpt>
      <trkpt lat="43.5916" lon="5.63894">
        <ele>449</ele>
        <time>2022-03-01T13:10:16Z</time>
      </trkpt>
      <trkpt lat="43.59164" lon="5.63851">
        <ele>451</ele>
        <time>2022-03-01T13:10:44Z</time>
      </trkpt>
      <trkpt lat="43.59185" lon="5.63824">
        <ele>452.39999389648</ele>
        <time>2022-03-01T13:11:07Z</time>
      </trkpt>
      <trkpt lat="43.59204" lon="5.63796">
        <ele>454.20001220703</ele>
        <time>2022-03-01T13:11:30Z</time>
      </trkpt>
      <trkpt lat="43.59213" lon="5.63755">
        <ele>456.60000610352</ele>
        <time>2022-03-01T13:11:58Z</time>
      </trkpt>
      <trkpt lat="43.59214" lon="5.63727">
        <ele>458</ele>
        <time>2022-03-01T13:12:16Z</time>
      </trkpt>
      <trkpt lat="43.5921" lon="5.63686">
        <ele>460</ele>
        <time>2022-03-01T13:12:40Z</time>
      </trkpt>
      <trkpt lat="43.59201" lon="5.63662">
        <ele>462.60000610352</ele>
        <time>2022-03-01T13:12:59Z</time>
      </trkpt>
      <trkpt lat="43.59189" lon="5.63642">
        <ele>465</ele>
        <time>2022-03-01T13:13:15Z</time>
      </trkpt>
      <trkpt lat="43.59176" lon="5.63618">
        <ele>467.39999389648</ele>
        <time>2022-03-01T13:13:35Z</time>
      </trkpt>
      <trkpt lat="43.59169" lon="5.63596">
        <ele>469.20001220703</ele>
        <time>2022-03-01T13:13:50Z</time>
      </trkpt>
      <trkpt lat="43.59154" lon="5.63573">
        <ele>469.79998779297</ele>
        <time>2022-03-01T13:14:10Z</time>
      </trkpt>
      <trkpt lat="43.59145" lon="5.63565">
        <ele>468.79998779297</ele>
        <time>2022-03-01T13:14:26Z</time>
      </trkpt>
      <trkpt lat="43.59143" lon="5.63557">
        <ele>468.60000610352</ele>
        <time>2022-03-01T13:14:32Z</time>
      </trkpt>
      <trkpt lat="43.59154" lon="5.63544">
        <ele>467.20001220703</ele>
        <time>2022-03-01T13:14:47Z</time>
      </trkpt>
      <trkpt lat="43.59156" lon="5.63537">
        <ele>466.39999389648</ele>
        <time>2022-03-01T13:14:52Z</time>
      </trkpt>
      <trkpt lat="43.59166" lon="5.63507">
        <ele>463.20001220703</ele>
        <time>2022-03-01T13:15:12Z</time>
      </trkpt>
      <trkpt lat="43.59186" lon="5.63507">
        <ele>460.79998779297</ele>
        <time>2022-03-01T13:15:28Z</time>
      </trkpt>
      <trkpt lat="43.59203" lon="5.63526">
        <ele>457.79998779297</ele>
        <time>2022-03-01T13:15:46Z</time>
      </trkpt>
      <trkpt lat="43.59225" lon="5.63546">
        <ele>454.60000610352</ele>
        <time>2022-03-01T13:16:05Z</time>
      </trkpt>
      <trkpt lat="43.59247" lon="5.63559">
        <ele>452.39999389648</ele>
        <time>2022-03-01T13:16:22Z</time>
      </trkpt>
      <trkpt lat="43.59261" lon="5.63564">
        <ele>451</ele>
        <time>2022-03-01T13:16:35Z</time>
      </trkpt>
      <trkpt lat="43.59287" lon="5.63567">
        <ele>447.79998779297</ele>
        <time>2022-03-01T13:16:53Z</time>
      </trkpt>
      <trkpt lat="43.59306" lon="5.63572">
        <ele>445.60000610352</ele>
        <time>2022-03-01T13:17:09Z</time>
      </trkpt>
      <trkpt lat="43.59324" lon="5.63567">
        <ele>444.60000610352</ele>
        <time>2022-03-01T13:17:27Z</time>
      </trkpt>
      <trkpt lat="43.59339" lon="5.63556">
        <ele>444</ele>
        <time>2022-03-01T13:17:41Z</time>
      </trkpt>
      <trkpt lat="43.59356" lon="5.63549">
        <ele>444.39999389648</ele>
        <time>2022-03-01T13:17:57Z</time>
      </trkpt>
      <trkpt lat="43.59375" lon="5.63537">
        <ele>446</ele>
        <time>2022-03-01T13:18:12Z</time>
      </trkpt>
      <trkpt lat="43.59375" lon="5.63536">
        <ele>446.20001220703</ele>
        <time>2022-03-01T13:18:13Z</time>
      </trkpt>
      <trkpt lat="43.59376" lon="5.63535">
        <ele>446.39999389648</ele>
        <time>2022-03-01T13:18:14Z</time>
      </trkpt>
      <trkpt lat="43.59377" lon="5.63534">
        <ele>446.39999389648</ele>
        <time>2022-03-01T13:18:15Z</time>
      </trkpt>
      <trkpt lat="43.59378" lon="5.63533">
        <ele>446.60000610352</ele>
        <time>2022-03-01T13:18:16Z</time>
      </trkpt>
      <trkpt lat="43.59379" lon="5.63532">
        <ele>446.79998779297</ele>
        <time>2022-03-01T13:18:17Z</time>
      </trkpt>
      <trkpt lat="43.5938" lon="5.63531">
        <ele>446.79998779297</ele>
        <time>2022-03-01T13:18:18Z</time>
      </trkpt>
      <trkpt lat="43.59381" lon="5.6353">
        <ele>447</ele>
        <time>2022-03-01T13:18:19Z</time>
      </trkpt>
      <trkpt lat="43.59382" lon="5.63529">
        <ele>447.20001220703</ele>
        <time>2022-03-01T13:18:20Z</time>
      </trkpt>
      <trkpt lat="43.59398" lon="5.63512">
        <ele>449.79998779297</ele>
        <time>2022-03-01T13:18:39Z</time>
      </trkpt>
      <trkpt lat="43.59401" lon="5.63508">
        <ele>450.39999389648</ele>
        <time>2022-03-01T13:18:43Z</time>
      </trkpt>
      <trkpt lat="43.59402" lon="5.63507">
        <ele>450.60000610352</ele>
        <time>2022-03-01T13:18:44Z</time>
      </trkpt>
      <trkpt lat="43.59403" lon="5.63506">
        <ele>450.60000610352</ele>
        <time>2022-03-01T13:18:45Z</time>
      </trkpt>
      <trkpt lat="43.59404" lon="5.63505">
        <ele>450.79998779297</ele>
        <time>2022-03-01T13:18:46Z</time>
      </trkpt>
      <trkpt lat="43.59405" lon="5.63504">
        <ele>450.79998779297</ele>
        <time>2022-03-01T13:18:47Z</time>
      </trkpt>
      <trkpt lat="43.59406" lon="5.63504">
        <ele>451</ele>
        <time>2022-03-01T13:18:48Z</time>
      </trkpt>
      <trkpt lat="43.59407" lon="5.63503">
        <ele>451.39999389648</ele>
        <time>2022-03-01T13:18:49Z</time>
      </trkpt>
      <trkpt lat="43.59408" lon="5.63502">
        <ele>451.39999389648</ele>
        <time>2022-03-01T13:18:50Z</time>
      </trkpt>
      <trkpt lat="43.59409" lon="5.63501">
        <ele>451.60000610352</ele>
        <time>2022-03-01T13:18:51Z</time>
      </trkpt>
      <trkpt lat="43.5941" lon="5.635">
        <ele>451.79998779297</ele>
        <time>2022-03-01T13:18:52Z</time>
      </trkpt>
      <trkpt lat="43.59411" lon="5.635">
        <ele>451.79998779297</ele>
        <time>2022-03-01T13:18:53Z</time>
      </trkpt>
      <trkpt lat="43.59426" lon="5.63494">
        <ele>453.60000610352</ele>
        <time>2022-03-01T13:19:09Z</time>
      </trkpt>
      <trkpt lat="43.59434" lon="5.6349">
        <ele>454.79998779297</ele>
        <time>2022-03-01T13:19:15Z</time>
      </trkpt>
      <trkpt lat="43.59435" lon="5.63489">
        <ele>454.79998779297</ele>
        <time>2022-03-01T13:19:16Z</time>
      </trkpt>
      <trkpt lat="43.59451" lon="5.63474">
        <ele>455.39999389648</ele>
        <time>2022-03-01T13:19:32Z</time>
      </trkpt>
      <trkpt lat="43.59452" lon="5.63474">
        <ele>455.39999389648</ele>
        <time>2022-03-01T13:19:33Z</time>
      </trkpt>
      <trkpt lat="43.5947" lon="5.63467">
        <ele>453.79998779297</ele>
        <time>2022-03-01T13:19:47Z</time>
      </trkpt>
      <trkpt lat="43.5949" lon="5.63469">
        <ele>450.79998779297</ele>
        <time>2022-03-01T13:20:04Z</time>
      </trkpt>
      <trkpt lat="43.59509" lon="5.6348">
        <ele>448.20001220703</ele>
        <time>2022-03-01T13:20:21Z</time>
      </trkpt>
      <trkpt lat="43.59525" lon="5.63481">
        <ele>445.20001220703</ele>
        <time>2022-03-01T13:20:34Z</time>
      </trkpt>
      <trkpt lat="43.59532" lon="5.63475">
        <ele>444.39999389648</ele>
        <time>2022-03-01T13:20:39Z</time>
      </trkpt>
      <trkpt lat="43.59534" lon="5.63474">
        <ele>444.20001220703</ele>
        <time>2022-03-01T13:20:40Z</time>
      </trkpt>
      <trkpt lat="43.59542" lon="5.6347">
        <ele>443</ele>
        <time>2022-03-01T13:20:46Z</time>
      </trkpt>
      <trkpt lat="43.59543" lon="5.6347">
        <ele>442.79998779297</ele>
        <time>2022-03-01T13:20:47Z</time>
      </trkpt>
      <trkpt lat="43.59545" lon="5.63469">
        <ele>442.60000610352</ele>
        <time>2022-03-01T13:20:48Z</time>
      </trkpt>
      <trkpt lat="43.59546" lon="5.63469">
        <ele>442.39999389648</ele>
        <time>2022-03-01T13:20:49Z</time>
      </trkpt>
      <trkpt lat="43.59547" lon="5.63468">
        <ele>442.20001220703</ele>
        <time>2022-03-01T13:20:50Z</time>
      </trkpt>
      <trkpt lat="43.59548" lon="5.63468">
        <ele>442</ele>
        <time>2022-03-01T13:20:51Z</time>
      </trkpt>
      <trkpt lat="43.59549" lon="5.63467">
        <ele>441.79998779297</ele>
        <time>2022-03-01T13:20:52Z</time>
      </trkpt>
      <trkpt lat="43.59551" lon="5.63466">
        <ele>441.20001220703</ele>
        <time>2022-03-01T13:20:53Z</time>
      </trkpt>
      <trkpt lat="43.59552" lon="5.63465">
        <ele>441</ele>
        <time>2022-03-01T13:20:54Z</time>
      </trkpt>
      <trkpt lat="43.59559" lon="5.6346">
        <ele>439.39999389648</ele>
        <time>2022-03-01T13:21:01Z</time>
      </trkpt>
      <trkpt lat="43.5958" lon="5.63446">
        <ele>436.39999389648</ele>
        <time>2022-03-01T13:21:20Z</time>
      </trkpt>
      <trkpt lat="43.596" lon="5.63435">
        <ele>434</ele>
        <time>2022-03-01T13:21:36Z</time>
      </trkpt>
      <trkpt lat="43.59603" lon="5.63432">
        <ele>433.79998779297</ele>
        <time>2022-03-01T13:21:38Z</time>
      </trkpt>
      <trkpt lat="43.59604" lon="5.63431">
        <ele>433.60000610352</ele>
        <time>2022-03-01T13:21:39Z</time>
      </trkpt>
      <trkpt lat="43.59619" lon="5.63422">
        <ele>431.39999389648</ele>
        <time>2022-03-01T13:21:54Z</time>
      </trkpt>
      <trkpt lat="43.59626" lon="5.63419">
        <ele>431</ele>
        <time>2022-03-01T13:21:59Z</time>
      </trkpt>
      <trkpt lat="43.59635" lon="5.63414">
        <ele>429.79998779297</ele>
        <time>2022-03-01T13:22:06Z</time>
      </trkpt>
      <trkpt lat="43.59635" lon="5.63413">
        <ele>429.60000610352</ele>
        <time>2022-03-01T13:22:07Z</time>
      </trkpt>
      <trkpt lat="43.59651" lon="5.63406">
        <ele>427.60000610352</ele>
        <time>2022-03-01T13:22:22Z</time>
      </trkpt>
      <trkpt lat="43.59671" lon="5.63394">
        <ele>425.39999389648</ele>
        <time>2022-03-01T13:22:39Z</time>
      </trkpt>
      <trkpt lat="43.59675" lon="5.63395">
        <ele>424.60000610352</ele>
        <time>2022-03-01T13:22:42Z</time>
      </trkpt>
      <trkpt lat="43.59687" lon="5.63389">
        <ele>423.39999389648</ele>
        <time>2022-03-01T13:22:55Z</time>
      </trkpt>
      <trkpt lat="43.59691" lon="5.63386">
        <ele>422.20001220703</ele>
        <time>2022-03-01T13:23:00Z</time>
      </trkpt>
      <trkpt lat="43.59692" lon="5.63385">
        <ele>422</ele>
        <time>2022-03-01T13:23:01Z</time>
      </trkpt>
      <trkpt lat="43.59693" lon="5.63385">
        <ele>421.79998779297</ele>
        <time>2022-03-01T13:23:02Z</time>
      </trkpt>
      <trkpt lat="43.59694" lon="5.63384">
        <ele>421.79998779297</ele>
        <time>2022-03-01T13:23:03Z</time>
      </trkpt>
      <trkpt lat="43.59695" lon="5.63382">
        <ele>421.60000610352</ele>
        <time>2022-03-01T13:23:05Z</time>
      </trkpt>
      <trkpt lat="43.59696" lon="5.63381">
        <ele>421.60000610352</ele>
        <time>2022-03-01T13:23:06Z</time>
      </trkpt>
      <trkpt lat="43.59717" lon="5.63364">
        <ele>419.20001220703</ele>
        <time>2022-03-01T13:23:22Z</time>
      </trkpt>
      <trkpt lat="43.59735" lon="5.63353">
        <ele>416.79998779297</ele>
        <time>2022-03-01T13:23:38Z</time>
      </trkpt>
      <trkpt lat="43.5974" lon="5.63352">
        <ele>416.20001220703</ele>
        <time>2022-03-01T13:23:41Z</time>
      </trkpt>
      <trkpt lat="43.59741" lon="5.63351">
        <ele>416</ele>
        <time>2022-03-01T13:23:42Z</time>
      </trkpt>
      <trkpt lat="43.59749" lon="5.63346">
        <ele>415</ele>
        <time>2022-03-01T13:23:48Z</time>
      </trkpt>
      <trkpt lat="43.59764" lon="5.63335">
        <ele>413.20001220703</ele>
        <time>2022-03-01T13:24:00Z</time>
      </trkpt>
      <trkpt lat="43.59776" lon="5.63327">
        <ele>412.20001220703</ele>
        <time>2022-03-01T13:24:11Z</time>
      </trkpt>
      <trkpt lat="43.59789" lon="5.63319">
        <ele>410.20001220703</ele>
        <time>2022-03-01T13:24:23Z</time>
      </trkpt>
      <trkpt lat="43.59805" lon="5.63295">
        <ele>407.20001220703</ele>
        <time>2022-03-01T13:24:39Z</time>
      </trkpt>
      <trkpt lat="43.59815" lon="5.63278">
        <ele>405</ele>
        <time>2022-03-01T13:24:52Z</time>
      </trkpt>
      <trkpt lat="43.59816" lon="5.63276">
        <ele>404.79998779297</ele>
        <time>2022-03-01T13:24:53Z</time>
      </trkpt>
      <trkpt lat="43.59817" lon="5.63275">
        <ele>404.79998779297</ele>
        <time>2022-03-01T13:24:54Z</time>
      </trkpt>
      <trkpt lat="43.59818" lon="5.63274">
        <ele>404.60000610352</ele>
        <time>2022-03-01T13:24:55Z</time>
      </trkpt>
      <trkpt lat="43.59819" lon="5.63273">
        <ele>404.60000610352</ele>
        <time>2022-03-01T13:24:56Z</time>
      </trkpt>
      <trkpt lat="43.5982" lon="5.63272">
        <ele>404.60000610352</ele>
        <time>2022-03-01T13:24:57Z</time>
      </trkpt>
      <trkpt lat="43.59821" lon="5.6327">
        <ele>404.60000610352</ele>
        <time>2022-03-01T13:24:58Z</time>
      </trkpt>
      <trkpt lat="43.59822" lon="5.63268">
        <ele>404.60000610352</ele>
        <time>2022-03-01T13:24:59Z</time>
      </trkpt>
      <trkpt lat="43.59823" lon="5.63267">
        <ele>404.39999389648</ele>
        <time>2022-03-01T13:25:00Z</time>
      </trkpt>
      <trkpt lat="43.59824" lon="5.63265">
        <ele>404.39999389648</ele>
        <time>2022-03-01T13:25:01Z</time>
      </trkpt>
      <trkpt lat="43.59824" lon="5.63265">
        <ele>404.39999389648</ele>
        <time>2022-03-01T13:25:02Z</time>
      </trkpt>
      <trkpt lat="43.59825" lon="5.63263">
        <ele>404.39999389648</ele>
        <time>2022-03-01T13:25:03Z</time>
      </trkpt>
      <trkpt lat="43.59827" lon="5.63259">
        <ele>404</ele>
        <time>2022-03-01T13:25:06Z</time>
      </trkpt>
      <trkpt lat="43.59828" lon="5.63258">
        <ele>403.79998779297</ele>
        <time>2022-03-01T13:25:07Z</time>
      </trkpt>
      <trkpt lat="43.59829" lon="5.63257">
        <ele>403.79998779297</ele>
        <time>2022-03-01T13:25:08Z</time>
      </trkpt>
      <trkpt lat="43.59831" lon="5.63252">
        <ele>403</ele>
        <time>2022-03-01T13:25:12Z</time>
      </trkpt>
      <trkpt lat="43.59832" lon="5.6325">
        <ele>403</ele>
        <time>2022-03-01T13:25:13Z</time>
      </trkpt>
      <trkpt lat="43.59833" lon="5.63248">
        <ele>402.79998779297</ele>
        <time>2022-03-01T13:25:14Z</time>
      </trkpt>
      <trkpt lat="43.59834" lon="5.63246">
        <ele>402.79998779297</ele>
        <time>2022-03-01T13:25:15Z</time>
      </trkpt>
      <trkpt lat="43.59835" lon="5.63245">
        <ele>402.79998779297</ele>
        <time>2022-03-01T13:25:16Z</time>
      </trkpt>
      <trkpt lat="43.59836" lon="5.63243">
        <ele>402.60000610352</ele>
        <time>2022-03-01T13:25:17Z</time>
      </trkpt>
      <trkpt lat="43.59836" lon="5.63242">
        <ele>402.39999389648</ele>
        <time>2022-03-01T13:25:18Z</time>
      </trkpt>
      <trkpt lat="43.59847" lon="5.63229">
        <ele>400</ele>
        <time>2022-03-01T13:25:31Z</time>
      </trkpt>
      <trkpt lat="43.59849" lon="5.63227">
        <ele>399.60000610352</ele>
        <time>2022-03-01T13:25:35Z</time>
      </trkpt>
      <trkpt lat="43.59851" lon="5.63225">
        <ele>399.39999389648</ele>
        <time>2022-03-01T13:25:37Z</time>
      </trkpt>
      <trkpt lat="43.59852" lon="5.63223">
        <ele>399.39999389648</ele>
        <time>2022-03-01T13:25:38Z</time>
      </trkpt>
      <trkpt lat="43.59853" lon="5.63222">
        <ele>399.39999389648</ele>
        <time>2022-03-01T13:25:39Z</time>
      </trkpt>
      <trkpt lat="43.59854" lon="5.63222">
        <ele>399.20001220703</ele>
        <time>2022-03-01T13:25:40Z</time>
      </trkpt>
      <trkpt lat="43.59855" lon="5.63221">
        <ele>399.20001220703</ele>
        <time>2022-03-01T13:25:41Z</time>
      </trkpt>
      <trkpt lat="43.59856" lon="5.6322">
        <ele>399</ele>
        <time>2022-03-01T13:25:42Z</time>
      </trkpt>
      <trkpt lat="43.59857" lon="5.63219">
        <ele>398.79998779297</ele>
        <time>2022-03-01T13:25:43Z</time>
      </trkpt>
      <trkpt lat="43.59858" lon="5.63217">
        <ele>398.39999389648</ele>
        <time>2022-03-01T13:25:45Z</time>
      </trkpt>
      <trkpt lat="43.59859" lon="5.63216">
        <ele>398.20001220703</ele>
        <time>2022-03-01T13:25:46Z</time>
      </trkpt>
      <trkpt lat="43.5986" lon="5.63215">
        <ele>398.20001220703</ele>
        <time>2022-03-01T13:25:47Z</time>
      </trkpt>
      <trkpt lat="43.59867" lon="5.63207">
        <ele>397.39999389648</ele>
        <time>2022-03-01T13:25:54Z</time>
      </trkpt>
      <trkpt lat="43.59868" lon="5.63206">
        <ele>397.20001220703</ele>
        <time>2022-03-01T13:25:55Z</time>
      </trkpt>
      <trkpt lat="43.59869" lon="5.63205">
        <ele>397</ele>
        <time>2022-03-01T13:25:56Z</time>
      </trkpt>
      <trkpt lat="43.5987" lon="5.63205">
        <ele>397</ele>
        <time>2022-03-01T13:25:57Z</time>
      </trkpt>
      <trkpt lat="43.59872" lon="5.63199">
        <ele>396.60000610352</ele>
        <time>2022-03-01T13:26:02Z</time>
      </trkpt>
      <trkpt lat="43.59873" lon="5.63197">
        <ele>396.60000610352</ele>
        <time>2022-03-01T13:26:03Z</time>
      </trkpt>
      <trkpt lat="43.59874" lon="5.63191">
        <ele>395.79998779297</ele>
        <time>2022-03-01T13:26:10Z</time>
      </trkpt>
      <trkpt lat="43.59878" lon="5.63185">
        <ele>395.39999389648</ele>
        <time>2022-03-01T13:26:15Z</time>
      </trkpt>
      <trkpt lat="43.59879" lon="5.63184">
        <ele>395.20001220703</ele>
        <time>2022-03-01T13:26:16Z</time>
      </trkpt>
      <trkpt lat="43.59885" lon="5.63174">
        <ele>394.60000610352</ele>
        <time>2022-03-01T13:26:26Z</time>
      </trkpt>
      <trkpt lat="43.5989" lon="5.6317">
        <ele>394.20001220703</ele>
        <time>2022-03-01T13:26:31Z</time>
      </trkpt>
      <trkpt lat="43.59896" lon="5.63164">
        <ele>393</ele>
        <time>2022-03-01T13:26:44Z</time>
      </trkpt>
      <trkpt lat="43.59907" lon="5.63163">
        <ele>392.79998779297</ele>
        <time>2022-03-01T13:26:56Z</time>
      </trkpt>
      <trkpt lat="43.59914" lon="5.63163">
        <ele>392.39999389648</ele>
        <time>2022-03-01T13:27:02Z</time>
      </trkpt>
      <trkpt lat="43.59916" lon="5.63162">
        <ele>392.39999389648</ele>
        <time>2022-03-01T13:27:03Z</time>
      </trkpt>
      <trkpt lat="43.59917" lon="5.63161">
        <ele>392.20001220703</ele>
        <time>2022-03-01T13:27:04Z</time>
      </trkpt>
      <trkpt lat="43.59919" lon="5.63161">
        <ele>392.20001220703</ele>
        <time>2022-03-01T13:27:05Z</time>
      </trkpt>
      <trkpt lat="43.59924" lon="5.63158">
        <ele>391.60000610352</ele>
        <time>2022-03-01T13:27:10Z</time>
      </trkpt>
      <trkpt lat="43.59934" lon="5.63143">
        <ele>390.20001220703</ele>
        <time>2022-03-01T13:27:23Z</time>
      </trkpt>
      <trkpt lat="43.59941" lon="5.63129">
        <ele>388.79998779297</ele>
        <time>2022-03-01T13:27:36Z</time>
      </trkpt>
      <trkpt lat="43.59951" lon="5.63111">
        <ele>388.79998779297</ele>
        <time>2022-03-01T13:27:57Z</time>
      </trkpt>
      <trkpt lat="43.59954" lon="5.63098">
        <ele>389.20001220703</ele>
        <time>2022-03-01T13:28:03Z</time>
      </trkpt>
      <trkpt lat="43.59955" lon="5.63096">
        <ele>389.39999389648</ele>
        <time>2022-03-01T13:28:04Z</time>
      </trkpt>
      <trkpt lat="43.59956" lon="5.63091">
        <ele>390</ele>
        <time>2022-03-01T13:28:08Z</time>
      </trkpt>
      <trkpt lat="43.59961" lon="5.63065">
        <ele>392.20001220703</ele>
        <time>2022-03-01T13:28:27Z</time>
      </trkpt>
      <trkpt lat="43.59959" lon="5.63046">
        <ele>393.39999389648</ele>
        <time>2022-03-01T13:28:41Z</time>
      </trkpt>
      <trkpt lat="43.59959" lon="5.63044">
        <ele>393.39999389648</ele>
        <time>2022-03-01T13:28:42Z</time>
      </trkpt>
      <trkpt lat="43.59955" lon="5.63024">
        <ele>394.60000610352</ele>
        <time>2022-03-01T13:28:54Z</time>
      </trkpt>
      <trkpt lat="43.5994" lon="5.63001">
        <ele>397.20001220703</ele>
        <time>2022-03-01T13:29:17Z</time>
      </trkpt>
      <trkpt lat="43.59924" lon="5.62981">
        <ele>399</ele>
        <time>2022-03-01T13:29:38Z</time>
      </trkpt>
      <trkpt lat="43.5992" lon="5.6296">
        <ele>400.60000610352</ele>
        <time>2022-03-01T13:29:53Z</time>
      </trkpt>
      <trkpt lat="43.59927" lon="5.62924">
        <ele>403.20001220703</ele>
        <time>2022-03-01T13:30:21Z</time>
      </trkpt>
      <trkpt lat="43.59915" lon="5.629">
        <ele>405.79998779297</ele>
        <time>2022-03-01T13:30:43Z</time>
      </trkpt>
      <trkpt lat="43.59903" lon="5.6287">
        <ele>408.20001220703</ele>
        <time>2022-03-01T13:31:09Z</time>
      </trkpt>
      <trkpt lat="43.59891" lon="5.62858">
        <ele>410.20001220703</ele>
        <time>2022-03-01T13:31:30Z</time>
      </trkpt>
      <trkpt lat="43.59896" lon="5.62853">
        <ele>410</ele>
        <time>2022-03-01T13:32:10Z</time>
      </trkpt>
      <trkpt lat="43.59883" lon="5.62847">
        <ele>411</ele>
        <time>2022-03-01T13:33:12Z</time>
      </trkpt>
      <trkpt lat="43.5987" lon="5.62844">
        <ele>413</ele>
        <time>2022-03-01T13:33:39Z</time>
      </trkpt>
      <trkpt lat="43.59853" lon="5.62837">
        <ele>414.39999389648</ele>
        <time>2022-03-01T13:34:00Z</time>
      </trkpt>
      <trkpt lat="43.59844" lon="5.62818">
        <ele>416.79998779297</ele>
        <time>2022-03-01T13:34:21Z</time>
      </trkpt>
      <trkpt lat="43.5983" lon="5.62803">
        <ele>419.60000610352</ele>
        <time>2022-03-01T13:34:43Z</time>
      </trkpt>
      <trkpt lat="43.59805" lon="5.62795">
        <ele>422.60000610352</ele>
        <time>2022-03-01T13:35:07Z</time>
      </trkpt>
      <trkpt lat="43.59787" lon="5.62793">
        <ele>424.79998779297</ele>
        <time>2022-03-01T13:35:29Z</time>
      </trkpt>
      <trkpt lat="43.59768" lon="5.62806">
        <ele>427.79998779297</ele>
        <time>2022-03-01T13:35:53Z</time>
      </trkpt>
      <trkpt lat="43.59753" lon="5.62816">
        <ele>430.60000610352</ele>
        <time>2022-03-01T13:36:14Z</time>
      </trkpt>
      <trkpt lat="43.59738" lon="5.62824">
        <ele>433.60000610352</ele>
        <time>2022-03-01T13:36:35Z</time>
      </trkpt>
      <trkpt lat="43.59716" lon="5.62828">
        <ele>436.60000610352</ele>
        <time>2022-03-01T13:36:57Z</time>
      </trkpt>
      <trkpt lat="43.59697" lon="5.62848">
        <ele>439.39999389648</ele>
        <time>2022-03-01T13:37:22Z</time>
      </trkpt>
      <trkpt lat="43.59682" lon="5.6285">
        <ele>442.39999389648</ele>
        <time>2022-03-01T13:37:43Z</time>
      </trkpt>
      <trkpt lat="43.59672" lon="5.62837">
        <ele>444.79998779297</ele>
        <time>2022-03-01T13:38:04Z</time>
      </trkpt>
      <trkpt lat="43.59655" lon="5.6283">
        <ele>446.79998779297</ele>
        <time>2022-03-01T13:38:25Z</time>
      </trkpt>
      <trkpt lat="43.59642" lon="5.62816">
        <ele>449.79998779297</ele>
        <time>2022-03-01T13:38:46Z</time>
      </trkpt>
      <trkpt lat="43.59636" lon="5.62794">
        <ele>452.79998779297</ele>
        <time>2022-03-01T13:39:05Z</time>
      </trkpt>
      <trkpt lat="43.59629" lon="5.62775">
        <ele>455</ele>
        <time>2022-03-01T13:39:24Z</time>
      </trkpt>
      <trkpt lat="43.5962" lon="5.62756">
        <ele>458</ele>
        <time>2022-03-01T13:39:46Z</time>
      </trkpt>
      <trkpt lat="43.59606" lon="5.62747">
        <ele>461.20001220703</ele>
        <time>2022-03-01T13:40:06Z</time>
      </trkpt>
      <trkpt lat="43.59597" lon="5.62724">
        <ele>464.20001220703</ele>
        <time>2022-03-01T13:40:28Z</time>
      </trkpt>
      <trkpt lat="43.59592" lon="5.62708">
        <ele>465.79998779297</ele>
        <time>2022-03-01T13:40:42Z</time>
      </trkpt>
      <trkpt lat="43.59586" lon="5.62683">
        <ele>468.79998779297</ele>
        <time>2022-03-01T13:41:05Z</time>
      </trkpt>
      <trkpt lat="43.59581" lon="5.62671">
        <ele>471</ele>
        <time>2022-03-01T13:41:20Z</time>
      </trkpt>
      <trkpt lat="43.59574" lon="5.62657">
        <ele>474.20001220703</ele>
        <time>2022-03-01T13:41:37Z</time>
      </trkpt>
      <trkpt lat="43.59569" lon="5.62642">
        <ele>477.20001220703</ele>
        <time>2022-03-01T13:41:54Z</time>
      </trkpt>
      <trkpt lat="43.59555" lon="5.62621">
        <ele>480.39999389648</ele>
        <time>2022-03-01T13:42:18Z</time>
      </trkpt>
      <trkpt lat="43.59549" lon="5.62601">
        <ele>483.39999389648</ele>
        <time>2022-03-01T13:42:39Z</time>
      </trkpt>
      <trkpt lat="43.59544" lon="5.62589">
        <ele>484.79998779297</ele>
        <time>2022-03-01T13:42:59Z</time>
      </trkpt>
      <trkpt lat="43.59541" lon="5.62568">
        <ele>487</ele>
        <time>2022-03-01T13:43:22Z</time>
      </trkpt>
      <trkpt lat="43.59529" lon="5.62551">
        <ele>490.20001220703</ele>
        <time>2022-03-01T13:43:42Z</time>
      </trkpt>
      <trkpt lat="43.59512" lon="5.62536">
        <ele>492.60000610352</ele>
        <time>2022-03-01T13:44:03Z</time>
      </trkpt>
      <trkpt lat="43.59505" lon="5.62529">
        <ele>494.39999389648</ele>
        <time>2022-03-01T13:44:14Z</time>
      </trkpt>
      <trkpt lat="43.59504" lon="5.62533">
        <ele>496.79998779297</ele>
        <time>2022-03-01T13:44:38Z</time>
      </trkpt>
      <trkpt lat="43.59504" lon="5.62535">
        <ele>496.60000610352</ele>
        <time>2022-03-01T13:44:55Z</time>
      </trkpt>
      <trkpt lat="43.59505" lon="5.62532">
        <ele>496.79998779297</ele>
        <time>2022-03-01T13:45:34Z</time>
      </trkpt>
      <trkpt lat="43.59506" lon="5.62533">
        <ele>496.39999389648</ele>
        <time>2022-03-01T13:46:09Z</time>
      </trkpt>
      <trkpt lat="43.59509" lon="5.62534">
        <ele>496.39999389648</ele>
        <time>2022-03-01T13:46:29Z</time>
      </trkpt>
      <trkpt lat="43.59509" lon="5.62535">
        <ele>496.60000610352</ele>
        <time>2022-03-01T13:46:54Z</time>
      </trkpt>
      <trkpt lat="43.59506" lon="5.62532">
        <ele>496.79998779297</ele>
        <time>2022-03-01T13:47:22Z</time>
      </trkpt>
      <trkpt lat="43.59508" lon="5.62534">
        <ele>496.60000610352</ele>
        <time>2022-03-01T13:47:44Z</time>
      </trkpt>
      <trkpt lat="43.59506" lon="5.62543">
        <ele>496.79998779297</ele>
        <time>2022-03-01T13:48:13Z</time>
      </trkpt>
      <trkpt lat="43.59508" lon="5.62543">
        <ele>496.60000610352</ele>
        <time>2022-03-01T13:48:18Z</time>
      </trkpt>
      <trkpt lat="43.59512" lon="5.62542">
        <ele>496.60000610352</ele>
        <time>2022-03-01T13:48:29Z</time>
      </trkpt>
      <trkpt lat="43.59513" lon="5.62538">
        <ele>496.20001220703</ele>
        <time>2022-03-01T13:48:33Z</time>
      </trkpt>
      <trkpt lat="43.5951" lon="5.62534">
        <ele>496.39999389648</ele>
        <time>2022-03-01T13:48:53Z</time>
      </trkpt>
      <trkpt lat="43.59508" lon="5.62533">
        <ele>496.39999389648</ele>
        <time>2022-03-01T13:48:55Z</time>
      </trkpt>
      <trkpt lat="43.59502" lon="5.62531">
        <ele>496.60000610352</ele>
        <time>2022-03-01T13:49:12Z</time>
      </trkpt>
      <trkpt lat="43.5952" lon="5.62532">
        <ele>496.60000610352</ele>
        <time>2022-03-01T13:49:42Z</time>
      </trkpt>
      <trkpt lat="43.59522" lon="5.62528">
        <ele>496.60000610352</ele>
        <time>2022-03-01T13:49:56Z</time>
      </trkpt>
      <trkpt lat="43.59516" lon="5.62528">
        <ele>496.39999389648</ele>
        <time>2022-03-01T13:50:04Z</time>
      </trkpt>
      <trkpt lat="43.59511" lon="5.62534">
        <ele>497.20001220703</ele>
        <time>2022-03-01T13:50:28Z</time>
      </trkpt>
      <trkpt lat="43.5951" lon="5.62534">
        <ele>497</ele>
        <time>2022-03-01T13:50:32Z</time>
      </trkpt>
      <trkpt lat="43.59507" lon="5.62535">
        <ele>497</ele>
        <time>2022-03-01T13:50:55Z</time>
      </trkpt>
      <trkpt lat="43.59505" lon="5.62533">
        <ele>497.39999389648</ele>
        <time>2022-03-01T13:51:19Z</time>
      </trkpt>
      <trkpt lat="43.59501" lon="5.62535">
        <ele>497.60000610352</ele>
        <time>2022-03-01T13:51:38Z</time>
      </trkpt>
      <trkpt lat="43.59504" lon="5.62537">
        <ele>497.20001220703</ele>
        <time>2022-03-01T13:51:58Z</time>
      </trkpt>
      <trkpt lat="43.59499" lon="5.62536">
        <ele>497.39999389648</ele>
        <time>2022-03-01T13:52:18Z</time>
      </trkpt>
      <trkpt lat="43.59508" lon="5.62531">
        <ele>497.60000610352</ele>
        <time>2022-03-01T13:52:45Z</time>
      </trkpt>
      <trkpt lat="43.59512" lon="5.62532">
        <ele>497</ele>
        <time>2022-03-01T13:53:12Z</time>
      </trkpt>
      <trkpt lat="43.59519" lon="5.62528">
        <ele>497</ele>
        <time>2022-03-01T13:53:33Z</time>
      </trkpt>
      <trkpt lat="43.59509" lon="5.62521">
        <ele>497.39999389648</ele>
        <time>2022-03-01T13:53:56Z</time>
      </trkpt>
      <trkpt lat="43.59499" lon="5.62518">
        <ele>498</ele>
        <time>2022-03-01T13:54:07Z</time>
      </trkpt>
      <trkpt lat="43.5948" lon="5.6251">
        <ele>501.20001220703</ele>
        <time>2022-03-01T13:54:28Z</time>
      </trkpt>
      <trkpt lat="43.59476" lon="5.62504">
        <ele>502.60000610352</ele>
        <time>2022-03-01T13:54:36Z</time>
      </trkpt>
      <trkpt lat="43.59471" lon="5.62486">
        <ele>505.79998779297</ele>
        <time>2022-03-01T13:54:57Z</time>
      </trkpt>
      <trkpt lat="43.59468" lon="5.62471">
        <ele>508.79998779297</ele>
        <time>2022-03-01T13:55:13Z</time>
      </trkpt>
      <trkpt lat="43.59462" lon="5.62462">
        <ele>512</ele>
        <time>2022-03-01T13:55:30Z</time>
      </trkpt>
      <trkpt lat="43.59452" lon="5.62452">
        <ele>515</ele>
        <time>2022-03-01T13:55:49Z</time>
      </trkpt>
      <trkpt lat="43.59442" lon="5.6244">
        <ele>518</ele>
        <time>2022-03-01T13:56:13Z</time>
      </trkpt>
      <trkpt lat="43.59442" lon="5.62427">
        <ele>520.20001220703</ele>
        <time>2022-03-01T13:56:30Z</time>
      </trkpt>
      <trkpt lat="43.59438" lon="5.62418">
        <ele>521.79998779297</ele>
        <time>2022-03-01T13:56:40Z</time>
      </trkpt>
      <trkpt lat="43.59434" lon="5.62415">
        <ele>522.40002441406</ele>
        <time>2022-03-01T13:56:44Z</time>
      </trkpt>
      <trkpt lat="43.59428" lon="5.6241">
        <ele>524.59997558594</ele>
        <time>2022-03-01T13:56:55Z</time>
      </trkpt>
      <trkpt lat="43.59422" lon="5.62406">
        <ele>525.79998779297</ele>
        <time>2022-03-01T13:57:04Z</time>
      </trkpt>
      <trkpt lat="43.59422" lon="5.62391">
        <ele>529.20001220703</ele>
        <time>2022-03-01T13:57:22Z</time>
      </trkpt>
      <trkpt lat="43.5942" lon="5.62381">
        <ele>532.20001220703</ele>
        <time>2022-03-01T13:57:41Z</time>
      </trkpt>
      <trkpt lat="43.59413" lon="5.62376">
        <ele>535.40002441406</ele>
        <time>2022-03-01T13:58:00Z</time>
      </trkpt>
      <trkpt lat="43.59406" lon="5.62369">
        <ele>538.59997558594</ele>
        <time>2022-03-01T13:58:18Z</time>
      </trkpt>
      <trkpt lat="43.59399" lon="5.62357">
        <ele>541.59997558594</ele>
        <time>2022-03-01T13:58:35Z</time>
      </trkpt>
      <trkpt lat="43.59396" lon="5.62348">
        <ele>544.79998779297</ele>
        <time>2022-03-01T13:58:55Z</time>
      </trkpt>
      <trkpt lat="43.59391" lon="5.62345">
        <ele>546.40002441406</ele>
        <time>2022-03-01T13:59:04Z</time>
      </trkpt>
      <trkpt lat="43.5939" lon="5.62332">
        <ele>549.59997558594</ele>
        <time>2022-03-01T13:59:23Z</time>
      </trkpt>
      <trkpt lat="43.59388" lon="5.62326">
        <ele>551.40002441406</ele>
        <time>2022-03-01T13:59:34Z</time>
      </trkpt>
      <trkpt lat="43.5938" lon="5.62316">
        <ele>554.79998779297</ele>
        <time>2022-03-01T13:59:55Z</time>
      </trkpt>
      <trkpt lat="43.59376" lon="5.62309">
        <ele>557.40002441406</ele>
        <time>2022-03-01T14:00:08Z</time>
      </trkpt>
      <trkpt lat="43.59372" lon="5.62303">
        <ele>560.59997558594</ele>
        <time>2022-03-01T14:00:29Z</time>
      </trkpt>
      <trkpt lat="43.59365" lon="5.62298">
        <ele>562.79998779297</ele>
        <time>2022-03-01T14:00:41Z</time>
      </trkpt>
      <trkpt lat="43.59358" lon="5.62293">
        <ele>566</ele>
        <time>2022-03-01T14:00:58Z</time>
      </trkpt>
      <trkpt lat="43.59355" lon="5.62289">
        <ele>569.20001220703</ele>
        <time>2022-03-01T14:01:16Z</time>
      </trkpt>
      <trkpt lat="43.5935" lon="5.62283">
        <ele>572.20001220703</ele>
        <time>2022-03-01T14:01:36Z</time>
      </trkpt>
      <trkpt lat="43.59351" lon="5.6228">
        <ele>573.40002441406</ele>
        <time>2022-03-01T14:01:43Z</time>
      </trkpt>
      <trkpt lat="43.59355" lon="5.62269">
        <ele>574.20001220703</ele>
        <time>2022-03-01T14:02:08Z</time>
      </trkpt>
      <trkpt lat="43.59355" lon="5.62269">
        <ele>574.20001220703</ele>
        <time>2022-03-01T14:02:09Z</time>
      </trkpt>
      <trkpt lat="43.59356" lon="5.6227">
        <ele>575</ele>
        <time>2022-03-01T14:02:18Z</time>
      </trkpt>
      <trkpt lat="43.5935" lon="5.62265">
        <ele>578.20001220703</ele>
        <time>2022-03-01T14:02:35Z</time>
      </trkpt>
      <trkpt lat="43.5935" lon="5.62261">
        <ele>581.20001220703</ele>
        <time>2022-03-01T14:02:53Z</time>
      </trkpt>
      <trkpt lat="43.59347" lon="5.62257">
        <ele>582.79998779297</ele>
        <time>2022-03-01T14:03:15Z</time>
      </trkpt>
      <trkpt lat="43.59343" lon="5.6225">
        <ele>586</ele>
        <time>2022-03-01T14:03:34Z</time>
      </trkpt>
      <trkpt lat="43.59351" lon="5.62247">
        <ele>589.20001220703</ele>
        <time>2022-03-01T14:03:50Z</time>
      </trkpt>
      <trkpt lat="43.59358" lon="5.62247">
        <ele>589.79998779297</ele>
        <time>2022-03-01T14:04:02Z</time>
      </trkpt>
      <trkpt lat="43.5937" lon="5.62241">
        <ele>591.20001220703</ele>
        <time>2022-03-01T14:04:24Z</time>
      </trkpt>
      <trkpt lat="43.59372" lon="5.62235">
        <ele>594.20001220703</ele>
        <time>2022-03-01T14:04:41Z</time>
      </trkpt>
      <trkpt lat="43.59371" lon="5.62233">
        <ele>595.20001220703</ele>
        <time>2022-03-01T14:04:47Z</time>
      </trkpt>
      <trkpt lat="43.59362" lon="5.62231">
        <ele>597.79998779297</ele>
        <time>2022-03-01T14:05:05Z</time>
      </trkpt>
      <trkpt lat="43.59347" lon="5.62221">
        <ele>600.79998779297</ele>
        <time>2022-03-01T14:05:26Z</time>
      </trkpt>
      <trkpt lat="43.59347" lon="5.62221">
        <ele>601.20001220703</ele>
        <time>2022-03-01T14:05:27Z</time>
      </trkpt>
      <trkpt lat="43.59336" lon="5.62221">
        <ele>603.20001220703</ele>
        <time>2022-03-01T14:05:49Z</time>
      </trkpt>
      <trkpt lat="43.59335" lon="5.62221">
        <ele>603.20001220703</ele>
        <time>2022-03-01T14:05:50Z</time>
      </trkpt>
      <trkpt lat="43.59333" lon="5.6222">
        <ele>603.59997558594</ele>
        <time>2022-03-01T14:05:52Z</time>
      </trkpt>
      <trkpt lat="43.59322" lon="5.62207">
        <ele>607</ele>
        <time>2022-03-01T14:06:13Z</time>
      </trkpt>
      <trkpt lat="43.59323" lon="5.622">
        <ele>608.20001220703</ele>
        <time>2022-03-01T14:06:24Z</time>
      </trkpt>
      <trkpt lat="43.59327" lon="5.62192">
        <ele>608.20001220703</ele>
        <time>2022-03-01T14:06:54Z</time>
      </trkpt>
      <trkpt lat="43.59325" lon="5.62188">
        <ele>608.59997558594</ele>
        <time>2022-03-01T14:07:04Z</time>
      </trkpt>
      <trkpt lat="43.59317" lon="5.62182">
        <ele>611.59997558594</ele>
        <time>2022-03-01T14:07:19Z</time>
      </trkpt>
      <trkpt lat="43.59311" lon="5.62169">
        <ele>614.79998779297</ele>
        <time>2022-03-01T14:07:35Z</time>
      </trkpt>
      <trkpt lat="43.59313" lon="5.6216">
        <ele>617.79998779297</ele>
        <time>2022-03-01T14:07:53Z</time>
      </trkpt>
      <trkpt lat="43.59302" lon="5.6215">
        <ele>620.79998779297</ele>
        <time>2022-03-01T14:08:11Z</time>
      </trkpt>
      <trkpt lat="43.59296" lon="5.62138">
        <ele>624</ele>
        <time>2022-03-01T14:08:30Z</time>
      </trkpt>
      <trkpt lat="43.59291" lon="5.62129">
        <ele>626.20001220703</ele>
        <time>2022-03-01T14:08:43Z</time>
      </trkpt>
      <trkpt lat="43.59283" lon="5.62119">
        <ele>629.40002441406</ele>
        <time>2022-03-01T14:09:00Z</time>
      </trkpt>
      <trkpt lat="43.59279" lon="5.62111">
        <ele>632.40002441406</ele>
        <time>2022-03-01T14:09:17Z</time>
      </trkpt>
      <trkpt lat="43.59283" lon="5.621">
        <ele>635.59997558594</ele>
        <time>2022-03-01T14:09:38Z</time>
      </trkpt>
      <trkpt lat="43.59283" lon="5.62092">
        <ele>638.79998779297</ele>
        <time>2022-03-01T14:09:58Z</time>
      </trkpt>
      <trkpt lat="43.59284" lon="5.62085">
        <ele>641.79998779297</ele>
        <time>2022-03-01T14:10:13Z</time>
      </trkpt>
      <trkpt lat="43.59282" lon="5.62081">
        <ele>644.79998779297</ele>
        <time>2022-03-01T14:10:28Z</time>
      </trkpt>
      <trkpt lat="43.5928" lon="5.62073">
        <ele>647.79998779297</ele>
        <time>2022-03-01T14:10:46Z</time>
      </trkpt>
      <trkpt lat="43.59275" lon="5.62062">
        <ele>650.79998779297</ele>
        <time>2022-03-01T14:11:02Z</time>
      </trkpt>
      <trkpt lat="43.59269" lon="5.62048">
        <ele>654</ele>
        <time>2022-03-01T14:11:24Z</time>
      </trkpt>
      <trkpt lat="43.59265" lon="5.62046">
        <ele>654.79998779297</ele>
        <time>2022-03-01T14:11:32Z</time>
      </trkpt>
      <trkpt lat="43.59254" lon="5.62027">
        <ele>657.79998779297</ele>
        <time>2022-03-01T14:12:04Z</time>
      </trkpt>
      <trkpt lat="43.59253" lon="5.62016">
        <ele>661</ele>
        <time>2022-03-01T14:12:19Z</time>
      </trkpt>
      <trkpt lat="43.59249" lon="5.62004">
        <ele>664</ele>
        <time>2022-03-01T14:12:37Z</time>
      </trkpt>
      <trkpt lat="43.5925" lon="5.61993">
        <ele>667</ele>
        <time>2022-03-01T14:12:54Z</time>
      </trkpt>
      <trkpt lat="43.59245" lon="5.61984">
        <ele>670.20001220703</ele>
        <time>2022-03-01T14:13:12Z</time>
      </trkpt>
      <trkpt lat="43.59248" lon="5.61972">
        <ele>673</ele>
        <time>2022-03-01T14:13:30Z</time>
      </trkpt>
      <trkpt lat="43.59246" lon="5.61962">
        <ele>676.20001220703</ele>
        <time>2022-03-01T14:13:47Z</time>
      </trkpt>
      <trkpt lat="43.59245" lon="5.61961">
        <ele>676.40002441406</ele>
        <time>2022-03-01T14:13:48Z</time>
      </trkpt>
      <trkpt lat="43.59246" lon="5.6195">
        <ele>679.79998779297</ele>
        <time>2022-03-01T14:14:08Z</time>
      </trkpt>
      <trkpt lat="43.59246" lon="5.61938">
        <ele>683</ele>
        <time>2022-03-01T14:14:25Z</time>
      </trkpt>
      <trkpt lat="43.59247" lon="5.61934">
        <ele>684</ele>
        <time>2022-03-01T14:14:32Z</time>
      </trkpt>
      <trkpt lat="43.59248" lon="5.61926">
        <ele>686.40002441406</ele>
        <time>2022-03-01T14:14:47Z</time>
      </trkpt>
      <trkpt lat="43.59249" lon="5.6192">
        <ele>688</ele>
        <time>2022-03-01T14:14:57Z</time>
      </trkpt>
      <trkpt lat="43.59246" lon="5.6191">
        <ele>691.20001220703</ele>
        <time>2022-03-01T14:15:14Z</time>
      </trkpt>
      <trkpt lat="43.59244" lon="5.61899">
        <ele>694.20001220703</ele>
        <time>2022-03-01T14:15:32Z</time>
      </trkpt>
      <trkpt lat="43.59245" lon="5.61898">
        <ele>694.59997558594</ele>
        <time>2022-03-01T14:15:34Z</time>
      </trkpt>
      <trkpt lat="43.59244" lon="5.61889">
        <ele>697.79998779297</ele>
        <time>2022-03-01T14:15:51Z</time>
      </trkpt>
      <trkpt lat="43.59243" lon="5.61888">
        <ele>698.40002441406</ele>
        <time>2022-03-01T14:15:54Z</time>
      </trkpt>
      <trkpt lat="43.59241" lon="5.6188">
        <ele>701.59997558594</ele>
        <time>2022-03-01T14:16:15Z</time>
      </trkpt>
      <trkpt lat="43.5924" lon="5.61868">
        <ele>704.79998779297</ele>
        <time>2022-03-01T14:16:35Z</time>
      </trkpt>
      <trkpt lat="43.59238" lon="5.61865">
        <ele>705.79998779297</ele>
        <time>2022-03-01T14:16:40Z</time>
      </trkpt>
      <trkpt lat="43.59233" lon="5.61855">
        <ele>709</ele>
        <time>2022-03-01T14:16:57Z</time>
      </trkpt>
      <trkpt lat="43.59236" lon="5.61852">
        <ele>711</ele>
        <time>2022-03-01T14:17:26Z</time>
      </trkpt>
      <trkpt lat="43.59236" lon="5.61845">
        <ele>711.40002441406</ele>
        <time>2022-03-01T14:17:55Z</time>
      </trkpt>
      <trkpt lat="43.59236" lon="5.61843">
        <ele>712.40002441406</ele>
        <time>2022-03-01T14:17:59Z</time>
      </trkpt>
      <trkpt lat="43.59234" lon="5.61832">
        <ele>716</ele>
        <time>2022-03-01T14:18:16Z</time>
      </trkpt>
      <trkpt lat="43.59233" lon="5.6183">
        <ele>716.59997558594</ele>
        <time>2022-03-01T14:18:19Z</time>
      </trkpt>
      <trkpt lat="43.59225" lon="5.61818">
        <ele>719.79998779297</ele>
        <time>2022-03-01T14:18:36Z</time>
      </trkpt>
      <trkpt lat="43.59225" lon="5.61807">
        <ele>722.79998779297</ele>
        <time>2022-03-01T14:18:54Z</time>
      </trkpt>
      <trkpt lat="43.59228" lon="5.61799">
        <ele>726</ele>
        <time>2022-03-01T14:19:11Z</time>
      </trkpt>
      <trkpt lat="43.59231" lon="5.61795">
        <ele>728.79998779297</ele>
        <time>2022-03-01T14:19:24Z</time>
      </trkpt>
      <trkpt lat="43.59223" lon="5.61787">
        <ele>731.79998779297</ele>
        <time>2022-03-01T14:19:41Z</time>
      </trkpt>
      <trkpt lat="43.59221" lon="5.61776">
        <ele>734.40002441406</ele>
        <time>2022-03-01T14:19:56Z</time>
      </trkpt>
      <trkpt lat="43.5922" lon="5.61771">
        <ele>736.59997558594</ele>
        <time>2022-03-01T14:20:09Z</time>
      </trkpt>
      <trkpt lat="43.59225" lon="5.61759">
        <ele>739.20001220703</ele>
        <time>2022-03-01T14:20:29Z</time>
      </trkpt>
      <trkpt lat="43.59225" lon="5.61749">
        <ele>742.40002441406</ele>
        <time>2022-03-01T14:20:48Z</time>
      </trkpt>
      <trkpt lat="43.59229" lon="5.61741">
        <ele>745.40002441406</ele>
        <time>2022-03-01T14:21:05Z</time>
      </trkpt>
      <trkpt lat="43.59232" lon="5.61732">
        <ele>748.59997558594</ele>
        <time>2022-03-01T14:21:21Z</time>
      </trkpt>
      <trkpt lat="43.59237" lon="5.61723">
        <ele>750</ele>
        <time>2022-03-01T14:21:42Z</time>
      </trkpt>
      <trkpt lat="43.59252" lon="5.61711">
        <ele>751.20001220703</ele>
        <time>2022-03-01T14:22:02Z</time>
      </trkpt>
      <trkpt lat="43.5927" lon="5.61706">
        <ele>753</ele>
        <time>2022-03-01T14:22:23Z</time>
      </trkpt>
      <trkpt lat="43.59289" lon="5.61693">
        <ele>754.79998779297</ele>
        <time>2022-03-01T14:22:43Z</time>
      </trkpt>
      <trkpt lat="43.59307" lon="5.61688">
        <ele>757.20001220703</ele>
        <time>2022-03-01T14:23:05Z</time>
      </trkpt>
      <trkpt lat="43.59312" lon="5.61687">
        <ele>757.40002441406</ele>
        <time>2022-03-01T14:23:13Z</time>
      </trkpt>
      <trkpt lat="43.59317" lon="5.61686">
        <ele>757.59997558594</ele>
        <time>2022-03-01T14:23:17Z</time>
      </trkpt>
      <trkpt lat="43.59337" lon="5.61689">
        <ele>759.20001220703</ele>
        <time>2022-03-01T14:23:37Z</time>
      </trkpt>
      <trkpt lat="43.59346" lon="5.61694">
        <ele>760.79998779297</ele>
        <time>2022-03-01T14:23:55Z</time>
      </trkpt>
      <trkpt lat="43.59362" lon="5.61697">
        <ele>761.40002441406</ele>
        <time>2022-03-01T14:24:13Z</time>
      </trkpt>
      <trkpt lat="43.59383" lon="5.61702">
        <ele>762.59997558594</ele>
        <time>2022-03-01T14:24:33Z</time>
      </trkpt>
      <trkpt lat="43.59404" lon="5.61699">
        <ele>763.40002441406</ele>
        <time>2022-03-01T14:24:53Z</time>
      </trkpt>
      <trkpt lat="43.59421" lon="5.61685">
        <ele>764.59997558594</ele>
        <time>2022-03-01T14:25:12Z</time>
      </trkpt>
      <trkpt lat="43.5943" lon="5.61667">
        <ele>765.79998779297</ele>
        <time>2022-03-01T14:25:27Z</time>
      </trkpt>
      <trkpt lat="43.59427" lon="5.61638">
        <ele>766.79998779297</ele>
        <time>2022-03-01T14:25:47Z</time>
      </trkpt>
      <trkpt lat="43.59424" lon="5.61622">
        <ele>767</ele>
        <time>2022-03-01T14:25:58Z</time>
      </trkpt>
      <trkpt lat="43.59427" lon="5.61609">
        <ele>767.20001220703</ele>
        <time>2022-03-01T14:26:08Z</time>
      </trkpt>
      <trkpt lat="43.59432" lon="5.61593">
        <ele>767.20001220703</ele>
        <time>2022-03-01T14:26:19Z</time>
      </trkpt>
      <trkpt lat="43.59438" lon="5.61567">
        <ele>767.59997558594</ele>
        <time>2022-03-01T14:26:36Z</time>
      </trkpt>
      <trkpt lat="43.59453" lon="5.61544">
        <ele>767.40002441406</ele>
        <time>2022-03-01T14:26:53Z</time>
      </trkpt>
      <trkpt lat="43.59462" lon="5.61525">
        <ele>768.20001220703</ele>
        <time>2022-03-01T14:27:08Z</time>
      </trkpt>
      <trkpt lat="43.59474" lon="5.61509">
        <ele>769.40002441406</ele>
        <time>2022-03-01T14:27:24Z</time>
      </trkpt>
      <trkpt lat="43.59484" lon="5.61499">
        <ele>770.40002441406</ele>
        <time>2022-03-01T14:27:33Z</time>
      </trkpt>
      <trkpt lat="43.59504" lon="5.61481">
        <ele>771.79998779297</ele>
        <time>2022-03-01T14:27:53Z</time>
      </trkpt>
      <trkpt lat="43.59517" lon="5.61465">
        <ele>773.79998779297</ele>
        <time>2022-03-01T14:28:08Z</time>
      </trkpt>
      <trkpt lat="43.59533" lon="5.61448">
        <ele>774.79998779297</ele>
        <time>2022-03-01T14:28:25Z</time>
      </trkpt>
      <trkpt lat="43.59546" lon="5.6143">
        <ele>776.40002441406</ele>
        <time>2022-03-01T14:28:41Z</time>
      </trkpt>
      <trkpt lat="43.59563" lon="5.61414">
        <ele>778.40002441406</ele>
        <time>2022-03-01T14:29:00Z</time>
      </trkpt>
      <trkpt lat="43.59581" lon="5.61402">
        <ele>780.20001220703</ele>
        <time>2022-03-01T14:29:18Z</time>
      </trkpt>
      <trkpt lat="43.59593" lon="5.61392">
        <ele>780.79998779297</ele>
        <time>2022-03-01T14:29:31Z</time>
      </trkpt>
      <trkpt lat="43.59606" lon="5.61377">
        <ele>783</ele>
        <time>2022-03-01T14:29:48Z</time>
      </trkpt>
      <trkpt lat="43.59608" lon="5.61375">
        <ele>783.40002441406</ele>
        <time>2022-03-01T14:29:50Z</time>
      </trkpt>
      <trkpt lat="43.59621" lon="5.61359">
        <ele>785.40002441406</ele>
        <time>2022-03-01T14:30:06Z</time>
      </trkpt>
      <trkpt lat="43.59633" lon="5.61348">
        <ele>787.20001220703</ele>
        <time>2022-03-01T14:30:21Z</time>
      </trkpt>
      <trkpt lat="43.59651" lon="5.61335">
        <ele>789.20001220703</ele>
        <time>2022-03-01T14:30:41Z</time>
      </trkpt>
      <trkpt lat="43.59667" lon="5.61322">
        <ele>791.20001220703</ele>
        <time>2022-03-01T14:31:00Z</time>
      </trkpt>
      <trkpt lat="43.59669" lon="5.61321">
        <ele>791.40002441406</ele>
        <time>2022-03-01T14:31:03Z</time>
      </trkpt>
      <trkpt lat="43.59688" lon="5.61311">
        <ele>793</ele>
        <time>2022-03-01T14:31:22Z</time>
      </trkpt>
      <trkpt lat="43.59699" lon="5.61301">
        <ele>793.79998779297</ele>
        <time>2022-03-01T14:31:35Z</time>
      </trkpt>
      <trkpt lat="43.59712" lon="5.61286">
        <ele>795.20001220703</ele>
        <time>2022-03-01T14:31:53Z</time>
      </trkpt>
      <trkpt lat="43.59721" lon="5.61278">
        <ele>794.79998779297</ele>
        <time>2022-03-01T14:32:10Z</time>
      </trkpt>
      <trkpt lat="43.59731" lon="5.61274">
        <ele>792.79998779297</ele>
        <time>2022-03-01T14:32:32Z</time>
      </trkpt>
      <trkpt lat="43.59734" lon="5.61275">
        <ele>793</ele>
        <time>2022-03-01T14:33:00Z</time>
      </trkpt>
      <trkpt lat="43.59743" lon="5.61284">
        <ele>789.79998779297</ele>
        <time>2022-03-01T14:33:19Z</time>
      </trkpt>
      <trkpt lat="43.59743" lon="5.61284">
        <ele>787.59997558594</ele>
        <time>2022-03-01T14:33:39Z</time>
      </trkpt>
      <trkpt lat="43.59738" lon="5.61274">
        <ele>790.40002441406</ele>
        <time>2022-03-01T14:34:02Z</time>
      </trkpt>
      <trkpt lat="43.59735" lon="5.61268">
        <ele>792.79998779297</ele>
        <time>2022-03-01T14:34:20Z</time>
      </trkpt>
      <trkpt lat="43.59738" lon="5.61261">
        <ele>793.20001220703</ele>
        <time>2022-03-01T14:34:42Z</time>
      </trkpt>
      <trkpt lat="43.59743" lon="5.61261">
        <ele>793</ele>
        <time>2022-03-01T14:34:57Z</time>
      </trkpt>
      <trkpt lat="43.59743" lon="5.6126">
        <ele>791.59997558594</ele>
        <time>2022-03-01T14:35:14Z</time>
      </trkpt>
      <trkpt lat="43.59746" lon="5.61257">
        <ele>792.40002441406</ele>
        <time>2022-03-01T14:35:26Z</time>
      </trkpt>
      <trkpt lat="43.59749" lon="5.61253">
        <ele>791.79998779297</ele>
        <time>2022-03-01T14:35:49Z</time>
      </trkpt>
      <trkpt lat="43.59748" lon="5.61248">
        <ele>790.40002441406</ele>
        <time>2022-03-01T14:36:08Z</time>
      </trkpt>
      <trkpt lat="43.59758" lon="5.61248">
        <ele>789</ele>
        <time>2022-03-01T14:36:26Z</time>
      </trkpt>
      <trkpt lat="43.59769" lon="5.61243">
        <ele>787.59997558594</ele>
        <time>2022-03-01T14:36:41Z</time>
      </trkpt>
      <trkpt lat="43.59775" lon="5.61242">
        <ele>787.59997558594</ele>
        <time>2022-03-01T14:37:00Z</time>
      </trkpt>
      <trkpt lat="43.59782" lon="5.61235">
        <ele>786.79998779297</ele>
        <time>2022-03-01T14:37:21Z</time>
      </trkpt>
      <trkpt lat="43.59787" lon="5.61233">
        <ele>786</ele>
        <time>2022-03-01T14:37:36Z</time>
      </trkpt>
      <trkpt lat="43.59793" lon="5.61224">
        <ele>785.79998779297</ele>
        <time>2022-03-01T14:37:51Z</time>
      </trkpt>
      <trkpt lat="43.59801" lon="5.61219">
        <ele>785.59997558594</ele>
        <time>2022-03-01T14:38:17Z</time>
      </trkpt>
      <trkpt lat="43.59804" lon="5.61212">
        <ele>784.79998779297</ele>
        <time>2022-03-01T14:38:31Z</time>
      </trkpt>
      <trkpt lat="43.59806" lon="5.61203">
        <ele>786</ele>
        <time>2022-03-01T14:38:48Z</time>
      </trkpt>
      <trkpt lat="43.59809" lon="5.61201">
        <ele>786.20001220703</ele>
        <time>2022-03-01T14:39:04Z</time>
      </trkpt>
      <trkpt lat="43.59808" lon="5.61202">
        <ele>785.79998779297</ele>
        <time>2022-03-01T14:39:43Z</time>
      </trkpt>
      <trkpt lat="43.59808" lon="5.61201">
        <ele>785.79998779297</ele>
        <time>2022-03-01T14:40:05Z</time>
      </trkpt>
      <trkpt lat="43.59809" lon="5.612">
        <ele>785.59997558594</ele>
        <time>2022-03-01T14:41:57Z</time>
      </trkpt>
      <trkpt lat="43.59814" lon="5.61196">
        <ele>786</ele>
        <time>2022-03-01T14:42:13Z</time>
      </trkpt>
      <trkpt lat="43.59816" lon="5.6119">
        <ele>784.59997558594</ele>
        <time>2022-03-01T14:42:30Z</time>
      </trkpt>
      <trkpt lat="43.59818" lon="5.61189">
        <ele>783.59997558594</ele>
        <time>2022-03-01T14:42:51Z</time>
      </trkpt>
      <trkpt lat="43.59814" lon="5.6119">
        <ele>783.79998779297</ele>
        <time>2022-03-01T14:44:15Z</time>
      </trkpt>
      <trkpt lat="43.59814" lon="5.61193">
        <ele>785.20001220703</ele>
        <time>2022-03-01T14:44:39Z</time>
      </trkpt>
      <trkpt lat="43.59814" lon="5.61195">
        <ele>785</ele>
        <time>2022-03-01T14:45:33Z</time>
      </trkpt>
      <trkpt lat="43.5981" lon="5.61198">
        <ele>786.59997558594</ele>
        <time>2022-03-01T14:45:52Z</time>
      </trkpt>
      <trkpt lat="43.59805" lon="5.61206">
        <ele>786.79998779297</ele>
        <time>2022-03-01T14:46:06Z</time>
      </trkpt>
      <trkpt lat="43.59799" lon="5.61218">
        <ele>785.40002441406</ele>
        <time>2022-03-01T14:46:37Z</time>
      </trkpt>
      <trkpt lat="43.59793" lon="5.61224">
        <ele>786.40002441406</ele>
        <time>2022-03-01T14:46:52Z</time>
      </trkpt>
      <trkpt lat="43.5979" lon="5.61231">
        <ele>786.79998779297</ele>
        <time>2022-03-01T14:47:00Z</time>
      </trkpt>
      <trkpt lat="43.59785" lon="5.61233">
        <ele>786.79998779297</ele>
        <time>2022-03-01T14:47:13Z</time>
      </trkpt>
      <trkpt lat="43.59778" lon="5.6124">
        <ele>787.79998779297</ele>
        <time>2022-03-01T14:47:30Z</time>
      </trkpt>
      <trkpt lat="43.5977" lon="5.61243">
        <ele>788.40002441406</ele>
        <time>2022-03-01T14:47:45Z</time>
      </trkpt>
      <trkpt lat="43.59756" lon="5.61247">
        <ele>789.59997558594</ele>
        <time>2022-03-01T14:48:03Z</time>
      </trkpt>
      <trkpt lat="43.59751" lon="5.6125">
        <ele>792</ele>
        <time>2022-03-01T14:48:26Z</time>
      </trkpt>
      <trkpt lat="43.59746" lon="5.61256">
        <ele>793.79998779297</ele>
        <time>2022-03-01T14:48:51Z</time>
      </trkpt>
      <trkpt lat="43.5974" lon="5.61256">
        <ele>794.20001220703</ele>
        <time>2022-03-01T14:49:07Z</time>
      </trkpt>
      <trkpt lat="43.59736" lon="5.61268">
        <ele>795.20001220703</ele>
        <time>2022-03-01T14:49:23Z</time>
      </trkpt>
      <trkpt lat="43.59725" lon="5.61276">
        <ele>794.79998779297</ele>
        <time>2022-03-01T14:49:41Z</time>
      </trkpt>
      <trkpt lat="43.59714" lon="5.61284">
        <ele>796.79998779297</ele>
        <time>2022-03-01T14:50:01Z</time>
      </trkpt>
      <trkpt lat="43.59704" lon="5.61284">
        <ele>797</ele>
        <time>2022-03-01T14:50:22Z</time>
      </trkpt>
      <trkpt lat="43.59703" lon="5.61285">
        <ele>796.20001220703</ele>
        <time>2022-03-01T14:50:55Z</time>
      </trkpt>
      <trkpt lat="43.59703" lon="5.61287">
        <ele>797</ele>
        <time>2022-03-01T14:51:30Z</time>
      </trkpt>
      <trkpt lat="43.59691" lon="5.61311">
        <ele>796.59997558594</ele>
        <time>2022-03-01T14:51:51Z</time>
      </trkpt>
      <trkpt lat="43.59668" lon="5.61321">
        <ele>795</ele>
        <time>2022-03-01T14:52:11Z</time>
      </trkpt>
      <trkpt lat="43.59648" lon="5.61323">
        <ele>794.20001220703</ele>
        <time>2022-03-01T14:52:26Z</time>
      </trkpt>
      <trkpt lat="43.5963" lon="5.61331">
        <ele>794.59997558594</ele>
        <time>2022-03-01T14:52:42Z</time>
      </trkpt>
      <trkpt lat="43.59613" lon="5.61338">
        <ele>795.20001220703</ele>
        <time>2022-03-01T14:52:55Z</time>
      </trkpt>
      <trkpt lat="43.59594" lon="5.61344">
        <ele>796.20001220703</ele>
        <time>2022-03-01T14:53:12Z</time>
      </trkpt>
      <trkpt lat="43.59572" lon="5.61351">
        <ele>796.59997558594</ele>
        <time>2022-03-01T14:53:30Z</time>
      </trkpt>
      <trkpt lat="43.59554" lon="5.61364">
        <ele>797.20001220703</ele>
        <time>2022-03-01T14:53:46Z</time>
      </trkpt>
      <trkpt lat="43.59534" lon="5.61378">
        <ele>798</ele>
        <time>2022-03-01T14:54:02Z</time>
      </trkpt>
      <trkpt lat="43.59511" lon="5.6138">
        <ele>800.79998779297</ele>
        <time>2022-03-01T14:54:23Z</time>
      </trkpt>
      <trkpt lat="43.595" lon="5.61382">
        <ele>802.40002441406</ele>
        <time>2022-03-01T14:54:33Z</time>
      </trkpt>
      <trkpt lat="43.59486" lon="5.61392">
        <ele>804.59997558594</ele>
        <time>2022-03-01T14:54:48Z</time>
      </trkpt>
      <trkpt lat="43.5947" lon="5.61406">
        <ele>806.20001220703</ele>
        <time>2022-03-01T14:55:06Z</time>
      </trkpt>
      <trkpt lat="43.59461" lon="5.61417">
        <ele>807.40002441406</ele>
        <time>2022-03-01T14:55:20Z</time>
      </trkpt>
      <trkpt lat="43.59454" lon="5.61426">
        <ele>807.40002441406</ele>
        <time>2022-03-01T14:55:38Z</time>
      </trkpt>
      <trkpt lat="43.5945" lon="5.61431">
        <ele>807.20001220703</ele>
        <time>2022-03-01T14:55:48Z</time>
      </trkpt>
      <trkpt lat="43.59444" lon="5.6143">
        <ele>807.20001220703</ele>
        <time>2022-03-01T14:56:03Z</time>
      </trkpt>
      <trkpt lat="43.59441" lon="5.6143">
        <ele>807.79998779297</ele>
        <time>2022-03-01T14:56:27Z</time>
      </trkpt>
      <trkpt lat="43.59427" lon="5.61439">
        <ele>807.40002441406</ele>
        <time>2022-03-01T14:56:43Z</time>
      </trkpt>
      <trkpt lat="43.59412" lon="5.61437">
        <ele>807.40002441406</ele>
        <time>2022-03-01T14:56:58Z</time>
      </trkpt>
      <trkpt lat="43.5941" lon="5.61438">
        <ele>807.40002441406</ele>
        <time>2022-03-01T14:57:00Z</time>
      </trkpt>
      <trkpt lat="43.59401" lon="5.61446">
        <ele>806.79998779297</ele>
        <time>2022-03-01T14:57:16Z</time>
      </trkpt>
      <trkpt lat="43.59397" lon="5.61456">
        <ele>806.20001220703</ele>
        <time>2022-03-01T14:57:42Z</time>
      </trkpt>
      <trkpt lat="43.59394" lon="5.61466">
        <ele>804.20001220703</ele>
        <time>2022-03-01T14:58:00Z</time>
      </trkpt>
      <trkpt lat="43.59395" lon="5.61466">
        <ele>804</ele>
        <time>2022-03-01T14:58:26Z</time>
      </trkpt>
      <trkpt lat="43.59395" lon="5.61474">
        <ele>804</ele>
        <time>2022-03-01T14:58:41Z</time>
      </trkpt>
      <trkpt lat="43.59395" lon="5.6148">
        <ele>803</ele>
        <time>2022-03-01T14:58:59Z</time>
      </trkpt>
      <trkpt lat="43.59393" lon="5.61477">
        <ele>803.20001220703</ele>
        <time>2022-03-01T14:59:41Z</time>
      </trkpt>
      <trkpt lat="43.59394" lon="5.61478">
        <ele>803</ele>
        <time>2022-03-01T15:00:04Z</time>
      </trkpt>
      <trkpt lat="43.5939" lon="5.61493">
        <ele>802.20001220703</ele>
        <time>2022-03-01T15:00:21Z</time>
      </trkpt>
      <trkpt lat="43.5939" lon="5.61496">
        <ele>802</ele>
        <time>2022-03-01T15:00:24Z</time>
      </trkpt>
      <trkpt lat="43.59381" lon="5.61509">
        <ele>799.59997558594</ele>
        <time>2022-03-01T15:00:41Z</time>
      </trkpt>
      <trkpt lat="43.59378" lon="5.61521">
        <ele>797.79998779297</ele>
        <time>2022-03-01T15:00:55Z</time>
      </trkpt>
      <trkpt lat="43.59378" lon="5.61534">
        <ele>795.59997558594</ele>
        <time>2022-03-01T15:01:09Z</time>
      </trkpt>
      <trkpt lat="43.59379" lon="5.61534">
        <ele>795.59997558594</ele>
        <time>2022-03-01T15:01:10Z</time>
      </trkpt>
      <trkpt lat="43.59374" lon="5.61549">
        <ele>793.59997558594</ele>
        <time>2022-03-01T15:01:27Z</time>
      </trkpt>
      <trkpt lat="43.59374" lon="5.6156">
        <ele>791.79998779297</ele>
        <time>2022-03-01T15:01:44Z</time>
      </trkpt>
      <trkpt lat="43.59374" lon="5.61568">
        <ele>790.59997558594</ele>
        <time>2022-03-01T15:01:58Z</time>
      </trkpt>
      <trkpt lat="43.59373" lon="5.61574">
        <ele>789.20001220703</ele>
        <time>2022-03-01T15:02:11Z</time>
      </trkpt>
      <trkpt lat="43.59361" lon="5.61576">
        <ele>787.79998779297</ele>
        <time>2022-03-01T15:02:27Z</time>
      </trkpt>
      <trkpt lat="43.59354" lon="5.6158">
        <ele>786.59997558594</ele>
        <time>2022-03-01T15:02:39Z</time>
      </trkpt>
      <trkpt lat="43.59346" lon="5.61591">
        <ele>785.20001220703</ele>
        <time>2022-03-01T15:02:54Z</time>
      </trkpt>
      <trkpt lat="43.59343" lon="5.61593">
        <ele>784.79998779297</ele>
        <time>2022-03-01T15:02:58Z</time>
      </trkpt>
      <trkpt lat="43.59332" lon="5.61598">
        <ele>782.79998779297</ele>
        <time>2022-03-01T15:03:16Z</time>
      </trkpt>
      <trkpt lat="43.59328" lon="5.61604">
        <ele>781.79998779297</ele>
        <time>2022-03-01T15:03:28Z</time>
      </trkpt>
      <trkpt lat="43.59316" lon="5.61612">
        <ele>780</ele>
        <time>2022-03-01T15:03:45Z</time>
      </trkpt>
      <trkpt lat="43.59308" lon="5.61614">
        <ele>778.59997558594</ele>
        <time>2022-03-01T15:04:03Z</time>
      </trkpt>
      <trkpt lat="43.59285" lon="5.61614">
        <ele>778</ele>
        <time>2022-03-01T15:04:25Z</time>
      </trkpt>
      <trkpt lat="43.59275" lon="5.61611">
        <ele>778.59997558594</ele>
        <time>2022-03-01T15:04:35Z</time>
      </trkpt>
      <trkpt lat="43.5927" lon="5.6161">
        <ele>778.79998779297</ele>
        <time>2022-03-01T15:04:40Z</time>
      </trkpt>
      <trkpt lat="43.59254" lon="5.6161">
        <ele>779</ele>
        <time>2022-03-01T15:04:55Z</time>
      </trkpt>
      <trkpt lat="43.59243" lon="5.61611">
        <ele>779.40002441406</ele>
        <time>2022-03-01T15:05:10Z</time>
      </trkpt>
      <trkpt lat="43.59239" lon="5.61611">
        <ele>779.40002441406</ele>
        <time>2022-03-01T15:05:13Z</time>
      </trkpt>
      <trkpt lat="43.59223" lon="5.61616">
        <ele>778.59997558594</ele>
        <time>2022-03-01T15:05:32Z</time>
      </trkpt>
      <trkpt lat="43.59213" lon="5.61626">
        <ele>776.40002441406</ele>
        <time>2022-03-01T15:05:49Z</time>
      </trkpt>
      <trkpt lat="43.5921" lon="5.61635">
        <ele>775.40002441406</ele>
        <time>2022-03-01T15:06:03Z</time>
      </trkpt>
      <trkpt lat="43.59209" lon="5.61636">
        <ele>775.40002441406</ele>
        <time>2022-03-01T15:06:05Z</time>
      </trkpt>
      <trkpt lat="43.59192" lon="5.61638">
        <ele>773.79998779297</ele>
        <time>2022-03-01T15:06:22Z</time>
      </trkpt>
      <trkpt lat="43.59189" lon="5.6164">
        <ele>773.79998779297</ele>
        <time>2022-03-01T15:06:25Z</time>
      </trkpt>
      <trkpt lat="43.5918" lon="5.6164">
        <ele>772.79998779297</ele>
        <time>2022-03-01T15:06:42Z</time>
      </trkpt>
      <trkpt lat="43.59178" lon="5.61641">
        <ele>772.79998779297</ele>
        <time>2022-03-01T15:07:03Z</time>
      </trkpt>
      <trkpt lat="43.59177" lon="5.61639">
        <ele>773</ele>
        <time>2022-03-01T15:07:44Z</time>
      </trkpt>
      <trkpt lat="43.5917" lon="5.61631">
        <ele>773.40002441406</ele>
        <time>2022-03-01T15:07:58Z</time>
      </trkpt>
      <trkpt lat="43.59161" lon="5.61624">
        <ele>773.79998779297</ele>
        <time>2022-03-01T15:08:13Z</time>
      </trkpt>
      <trkpt lat="43.59159" lon="5.61623">
        <ele>773.20001220703</ele>
        <time>2022-03-01T15:08:29Z</time>
      </trkpt>
      <trkpt lat="43.59159" lon="5.61623">
        <ele>773.40002441406</ele>
        <time>2022-03-01T15:08:46Z</time>
      </trkpt>
      <trkpt lat="43.59158" lon="5.61623">
        <ele>773.20001220703</ele>
        <time>2022-03-01T15:09:06Z</time>
      </trkpt>
      <trkpt lat="43.59159" lon="5.61623">
        <ele>773.20001220703</ele>
        <time>2022-03-01T15:09:25Z</time>
      </trkpt>
      <trkpt lat="43.59162" lon="5.61623">
        <ele>773.20001220703</ele>
        <time>2022-03-01T15:10:01Z</time>
      </trkpt>
      <trkpt lat="43.59163" lon="5.61624">
        <ele>773.59997558594</ele>
        <time>2022-03-01T15:10:31Z</time>
      </trkpt>
      <trkpt lat="43.5916" lon="5.61623">
        <ele>773.40002441406</ele>
        <time>2022-03-01T15:10:58Z</time>
      </trkpt>
      <trkpt lat="43.59159" lon="5.61622">
        <ele>773.20001220703</ele>
        <time>2022-03-01T15:11:18Z</time>
      </trkpt>
      <trkpt lat="43.5916" lon="5.61623">
        <ele>773</ele>
        <time>2022-03-01T15:11:44Z</time>
      </trkpt>
      <trkpt lat="43.59159" lon="5.61625">
        <ele>772.59997558594</ele>
        <time>2022-03-01T15:12:05Z</time>
      </trkpt>
      <trkpt lat="43.59156" lon="5.61626">
        <ele>772.20001220703</ele>
        <time>2022-03-01T15:12:35Z</time>
      </trkpt>
      <trkpt lat="43.59157" lon="5.61628">
        <ele>772.40002441406</ele>
        <time>2022-03-01T15:12:58Z</time>
      </trkpt>
      <trkpt lat="43.59155" lon="5.61627">
        <ele>772.59997558594</ele>
        <time>2022-03-01T15:13:20Z</time>
      </trkpt>
      <trkpt lat="43.59156" lon="5.61631">
        <ele>771.79998779297</ele>
        <time>2022-03-01T15:13:47Z</time>
      </trkpt>
      <trkpt lat="43.59159" lon="5.61632">
        <ele>771.79998779297</ele>
        <time>2022-03-01T15:14:06Z</time>
      </trkpt>
      <trkpt lat="43.59157" lon="5.61633">
        <ele>772</ele>
        <time>2022-03-01T15:14:38Z</time>
      </trkpt>
      <trkpt lat="43.59161" lon="5.61627">
        <ele>772.59997558594</ele>
        <time>2022-03-01T15:15:15Z</time>
      </trkpt>
      <trkpt lat="43.59167" lon="5.61627">
        <ele>773.59997558594</ele>
        <time>2022-03-01T15:15:31Z</time>
      </trkpt>
      <trkpt lat="43.59173" lon="5.61636">
        <ele>773.79998779297</ele>
        <time>2022-03-01T15:15:46Z</time>
      </trkpt>
      <trkpt lat="43.5918" lon="5.61644">
        <ele>773.40002441406</ele>
        <time>2022-03-01T15:16:03Z</time>
      </trkpt>
      <trkpt lat="43.59181" lon="5.6165">
        <ele>773.20001220703</ele>
        <time>2022-03-01T15:16:19Z</time>
      </trkpt>
      <trkpt lat="43.59186" lon="5.61647">
        <ele>773.40002441406</ele>
        <time>2022-03-01T15:16:38Z</time>
      </trkpt>
      <trkpt lat="43.59183" lon="5.61651">
        <ele>773.79998779297</ele>
        <time>2022-03-01T15:17:11Z</time>
      </trkpt>
      <trkpt lat="43.59185" lon="5.61655">
        <ele>773.59997558594</ele>
        <time>2022-03-01T15:17:40Z</time>
      </trkpt>
      <trkpt lat="43.59186" lon="5.61658">
        <ele>773.59997558594</ele>
        <time>2022-03-01T15:17:51Z</time>
      </trkpt>
      <trkpt lat="43.59189" lon="5.61662">
        <ele>773.59997558594</ele>
        <time>2022-03-01T15:17:54Z</time>
      </trkpt>
      <trkpt lat="43.59194" lon="5.61664">
        <ele>773.20001220703</ele>
        <time>2022-03-01T15:17:59Z</time>
      </trkpt>
      <trkpt lat="43.59197" lon="5.61673">
        <ele>772</ele>
        <time>2022-03-01T15:18:06Z</time>
      </trkpt>
      <trkpt lat="43.59211" lon="5.61682">
        <ele>770.20001220703</ele>
        <time>2022-03-01T15:18:19Z</time>
      </trkpt>
      <trkpt lat="43.59217" lon="5.61688">
        <ele>768.59997558594</ele>
        <time>2022-03-01T15:18:27Z</time>
      </trkpt>
      <trkpt lat="43.59221" lon="5.61703">
        <ele>765.40002441406</ele>
        <time>2022-03-01T15:18:40Z</time>
      </trkpt>
      <trkpt lat="43.59224" lon="5.61713">
        <ele>762</ele>
        <time>2022-03-01T15:18:50Z</time>
      </trkpt>
      <trkpt lat="43.59226" lon="5.61722">
        <ele>759</ele>
        <time>2022-03-01T15:19:03Z</time>
      </trkpt>
      <trkpt lat="43.59224" lon="5.61733">
        <ele>757</ele>
        <time>2022-03-01T15:19:12Z</time>
      </trkpt>
      <trkpt lat="43.5921" lon="5.61744">
        <ele>753.59997558594</ele>
        <time>2022-03-01T15:19:26Z</time>
      </trkpt>
      <trkpt lat="43.59188" lon="5.61753">
        <ele>750.79998779297</ele>
        <time>2022-03-01T15:19:44Z</time>
      </trkpt>
      <trkpt lat="43.59166" lon="5.61752">
        <ele>748.40002441406</ele>
        <time>2022-03-01T15:20:02Z</time>
      </trkpt>
      <trkpt lat="43.59139" lon="5.61754">
        <ele>745.59997558594</ele>
        <time>2022-03-01T15:20:22Z</time>
      </trkpt>
      <trkpt lat="43.59115" lon="5.61766">
        <ele>743.40002441406</ele>
        <time>2022-03-01T15:20:41Z</time>
      </trkpt>
      <trkpt lat="43.59087" lon="5.61779">
        <ele>740.79998779297</ele>
        <time>2022-03-01T15:21:02Z</time>
      </trkpt>
      <trkpt lat="43.59057" lon="5.61796">
        <ele>739</ele>
        <time>2022-03-01T15:21:23Z</time>
      </trkpt>
      <trkpt lat="43.59033" lon="5.61805">
        <ele>736.59997558594</ele>
        <time>2022-03-01T15:21:43Z</time>
      </trkpt>
      <trkpt lat="43.59031" lon="5.61806">
        <ele>736.40002441406</ele>
        <time>2022-03-01T15:21:44Z</time>
      </trkpt>
      <trkpt lat="43.59013" lon="5.61828">
        <ele>736</ele>
        <time>2022-03-01T15:22:02Z</time>
      </trkpt>
      <trkpt lat="43.58999" lon="5.61863">
        <ele>734.40002441406</ele>
        <time>2022-03-01T15:22:25Z</time>
      </trkpt>
      <trkpt lat="43.58988" lon="5.61883">
        <ele>732.40002441406</ele>
        <time>2022-03-01T15:22:39Z</time>
      </trkpt>
      <trkpt lat="43.58971" lon="5.61902">
        <ele>729.79998779297</ele>
        <time>2022-03-01T15:22:57Z</time>
      </trkpt>
      <trkpt lat="43.58984" lon="5.6193">
        <ele>726.59997558594</ele>
        <time>2022-03-01T15:23:13Z</time>
      </trkpt>
      <trkpt lat="43.58993" lon="5.61937">
        <ele>725</ele>
        <time>2022-03-01T15:23:22Z</time>
      </trkpt>
      <trkpt lat="43.58995" lon="5.61937">
        <ele>724.59997558594</ele>
        <time>2022-03-01T15:23:23Z</time>
      </trkpt>
      <trkpt lat="43.58997" lon="5.61937">
        <ele>724.40002441406</ele>
        <time>2022-03-01T15:23:24Z</time>
      </trkpt>
      <trkpt lat="43.58998" lon="5.61938">
        <ele>724.20001220703</ele>
        <time>2022-03-01T15:23:25Z</time>
      </trkpt>
      <trkpt lat="43.58999" lon="5.61938">
        <ele>724.20001220703</ele>
        <time>2022-03-01T15:23:26Z</time>
      </trkpt>
      <trkpt lat="43.59" lon="5.61938">
        <ele>724</ele>
        <time>2022-03-01T15:23:27Z</time>
      </trkpt>
      <trkpt lat="43.59022" lon="5.61942">
        <ele>721</ele>
        <time>2022-03-01T15:23:44Z</time>
      </trkpt>
      <trkpt lat="43.5904" lon="5.61945">
        <ele>718.20001220703</ele>
        <time>2022-03-01T15:23:58Z</time>
      </trkpt>
      <trkpt lat="43.5906" lon="5.61952">
        <ele>715</ele>
        <time>2022-03-01T15:24:15Z</time>
      </trkpt>
      <trkpt lat="43.5906" lon="5.61975">
        <ele>712</ele>
        <time>2022-03-01T15:24:28Z</time>
      </trkpt>
      <trkpt lat="43.59042" lon="5.61991">
        <ele>709.40002441406</ele>
        <time>2022-03-01T15:24:46Z</time>
      </trkpt>
      <trkpt lat="43.59025" lon="5.62004">
        <ele>706.40002441406</ele>
        <time>2022-03-01T15:25:01Z</time>
      </trkpt>
      <trkpt lat="43.59012" lon="5.62031">
        <ele>703.40002441406</ele>
        <time>2022-03-01T15:25:16Z</time>
      </trkpt>
      <trkpt lat="43.59003" lon="5.62056">
        <ele>700.20001220703</ele>
        <time>2022-03-01T15:25:30Z</time>
      </trkpt>
      <trkpt lat="43.59001" lon="5.62063">
        <ele>699.20001220703</ele>
        <time>2022-03-01T15:25:34Z</time>
      </trkpt>
      <trkpt lat="43.59" lon="5.62065">
        <ele>699.20001220703</ele>
        <time>2022-03-01T15:25:35Z</time>
      </trkpt>
      <trkpt lat="43.59" lon="5.62066">
        <ele>699</ele>
        <time>2022-03-01T15:25:36Z</time>
      </trkpt>
      <trkpt lat="43.58999" lon="5.62068">
        <ele>698.79998779297</ele>
        <time>2022-03-01T15:25:37Z</time>
      </trkpt>
      <trkpt lat="43.58999" lon="5.6207">
        <ele>698.79998779297</ele>
        <time>2022-03-01T15:25:38Z</time>
      </trkpt>
      <trkpt lat="43.58995" lon="5.62091">
        <ele>695.79998779297</ele>
        <time>2022-03-01T15:25:50Z</time>
      </trkpt>
      <trkpt lat="43.5899" lon="5.62118">
        <ele>692.79998779297</ele>
        <time>2022-03-01T15:26:05Z</time>
      </trkpt>
      <trkpt lat="43.58979" lon="5.62135">
        <ele>689.79998779297</ele>
        <time>2022-03-01T15:26:19Z</time>
      </trkpt>
      <trkpt lat="43.58965" lon="5.6213">
        <ele>686.59997558594</ele>
        <time>2022-03-01T15:26:35Z</time>
      </trkpt>
      <trkpt lat="43.5896" lon="5.62128">
        <ele>685.59997558594</ele>
        <time>2022-03-01T15:27:00Z</time>
      </trkpt>
      <trkpt lat="43.58947" lon="5.62115">
        <ele>683</ele>
        <time>2022-03-01T15:27:24Z</time>
      </trkpt>
      <trkpt lat="43.58943" lon="5.62111">
        <ele>682.20001220703</ele>
        <time>2022-03-01T15:27:29Z</time>
      </trkpt>
      <trkpt lat="43.58932" lon="5.62102">
        <ele>679.79998779297</ele>
        <time>2022-03-01T15:27:47Z</time>
      </trkpt>
      <trkpt lat="43.58934" lon="5.62101">
        <ele>678.59997558594</ele>
        <time>2022-03-01T15:28:06Z</time>
      </trkpt>
      <trkpt lat="43.58935" lon="5.62102">
        <ele>678.59997558594</ele>
        <time>2022-03-01T15:28:55Z</time>
      </trkpt>
      <trkpt lat="43.58933" lon="5.62099">
        <ele>678.20001220703</ele>
        <time>2022-03-01T15:29:15Z</time>
      </trkpt>
      <trkpt lat="43.58923" lon="5.62091">
        <ele>677.79998779297</ele>
        <time>2022-03-01T15:29:34Z</time>
      </trkpt>
      <trkpt lat="43.58917" lon="5.62086">
        <ele>676.79998779297</ele>
        <time>2022-03-01T15:29:39Z</time>
      </trkpt>
      <trkpt lat="43.58904" lon="5.62071">
        <ele>674</ele>
        <time>2022-03-01T15:29:57Z</time>
      </trkpt>
      <trkpt lat="43.58887" lon="5.62057">
        <ele>670.79998779297</ele>
        <time>2022-03-01T15:30:16Z</time>
      </trkpt>
      <trkpt lat="43.5887" lon="5.62043">
        <ele>667.79998779297</ele>
        <time>2022-03-01T15:30:35Z</time>
      </trkpt>
      <trkpt lat="43.58844" lon="5.62041">
        <ele>664.79998779297</ele>
        <time>2022-03-01T15:30:55Z</time>
      </trkpt>
      <trkpt lat="43.58828" lon="5.62048">
        <ele>661.79998779297</ele>
        <time>2022-03-01T15:31:10Z</time>
      </trkpt>
      <trkpt lat="43.58804" lon="5.6205">
        <ele>658.79998779297</ele>
        <time>2022-03-01T15:31:31Z</time>
      </trkpt>
      <trkpt lat="43.58784" lon="5.62044">
        <ele>656.79998779297</ele>
        <time>2022-03-01T15:31:48Z</time>
      </trkpt>
      <trkpt lat="43.58773" lon="5.62063">
        <ele>654.79998779297</ele>
        <time>2022-03-01T15:32:03Z</time>
      </trkpt>
      <trkpt lat="43.58768" lon="5.62097">
        <ele>652.20001220703</ele>
        <time>2022-03-01T15:32:24Z</time>
      </trkpt>
      <trkpt lat="43.58764" lon="5.6212">
        <ele>650.40002441406</ele>
        <time>2022-03-01T15:32:39Z</time>
      </trkpt>
      <trkpt lat="43.58758" lon="5.6213">
        <ele>649.20001220703</ele>
        <time>2022-03-01T15:32:55Z</time>
      </trkpt>
      <trkpt lat="43.58752" lon="5.62137">
        <ele>649.79998779297</ele>
        <time>2022-03-01T15:33:04Z</time>
      </trkpt>
      <trkpt lat="43.58741" lon="5.62136">
        <ele>650.79998779297</ele>
        <time>2022-03-01T15:33:19Z</time>
      </trkpt>
      <trkpt lat="43.58736" lon="5.62127">
        <ele>652.40002441406</ele>
        <time>2022-03-01T15:33:32Z</time>
      </trkpt>
      <trkpt lat="43.58738" lon="5.62111">
        <ele>654.40002441406</ele>
        <time>2022-03-01T15:33:48Z</time>
      </trkpt>
      <trkpt lat="43.58739" lon="5.62104">
        <ele>655.59997558594</ele>
        <time>2022-03-01T15:34:04Z</time>
      </trkpt>
      <trkpt lat="43.58736" lon="5.62103">
        <ele>655.59997558594</ele>
        <time>2022-03-01T15:34:32Z</time>
      </trkpt>
      <trkpt lat="43.58736" lon="5.62103">
        <ele>655.59997558594</ele>
        <time>2022-03-01T15:34:58Z</time>
      </trkpt>
      <trkpt lat="43.58738" lon="5.62106">
        <ele>656</ele>
        <time>2022-03-01T15:35:34Z</time>
      </trkpt>
      <trkpt lat="43.58741" lon="5.62108">
        <ele>655.79998779297</ele>
        <time>2022-03-01T15:36:03Z</time>
      </trkpt>
      <trkpt lat="43.58746" lon="5.62114">
        <ele>656</ele>
        <time>2022-03-01T15:36:20Z</time>
      </trkpt>
      <trkpt lat="43.58754" lon="5.6212">
        <ele>654</ele>
        <time>2022-03-01T15:36:35Z</time>
      </trkpt>
      <trkpt lat="43.58759" lon="5.6213">
        <ele>651.79998779297</ele>
        <time>2022-03-01T15:36:51Z</time>
      </trkpt>
      <trkpt lat="43.5876" lon="5.62128">
        <ele>651.40002441406</ele>
        <time>2022-03-01T15:36:54Z</time>
      </trkpt>
      <trkpt lat="43.58768" lon="5.6212">
        <ele>649.79998779297</ele>
        <time>2022-03-01T15:37:03Z</time>
      </trkpt>
      <trkpt lat="43.58775" lon="5.62111">
        <ele>648.59997558594</ele>
        <time>2022-03-01T15:37:13Z</time>
      </trkpt>
      <trkpt lat="43.58777" lon="5.62103">
        <ele>648</ele>
        <time>2022-03-01T15:37:18Z</time>
      </trkpt>
      <trkpt lat="43.58785" lon="5.62093">
        <ele>646.79998779297</ele>
        <time>2022-03-01T15:37:30Z</time>
      </trkpt>
      <trkpt lat="43.58791" lon="5.62102">
        <ele>646.20001220703</ele>
        <time>2022-03-01T15:37:37Z</time>
      </trkpt>
      <trkpt lat="43.58787" lon="5.62127">
        <ele>643.79998779297</ele>
        <time>2022-03-01T15:37:53Z</time>
      </trkpt>
      <trkpt lat="43.58782" lon="5.62156">
        <ele>640.79998779297</ele>
        <time>2022-03-01T15:38:10Z</time>
      </trkpt>
      <trkpt lat="43.58781" lon="5.62165">
        <ele>640</ele>
        <time>2022-03-01T15:38:16Z</time>
      </trkpt>
      <trkpt lat="43.5878" lon="5.62173">
        <ele>639.40002441406</ele>
        <time>2022-03-01T15:38:21Z</time>
      </trkpt>
      <trkpt lat="43.5878" lon="5.62174">
        <ele>639.20001220703</ele>
        <time>2022-03-01T15:38:22Z</time>
      </trkpt>
      <trkpt lat="43.58775" lon="5.62195">
        <ele>636.79998779297</ele>
        <time>2022-03-01T15:38:36Z</time>
      </trkpt>
      <trkpt lat="43.58773" lon="5.62207">
        <ele>635.59997558594</ele>
        <time>2022-03-01T15:38:45Z</time>
      </trkpt>
      <trkpt lat="43.58767" lon="5.62235">
        <ele>632.59997558594</ele>
        <time>2022-03-01T15:39:01Z</time>
      </trkpt>
      <trkpt lat="43.58764" lon="5.62266">
        <ele>630</ele>
        <time>2022-03-01T15:39:16Z</time>
      </trkpt>
      <trkpt lat="43.58761" lon="5.62293">
        <ele>627</ele>
        <time>2022-03-01T15:39:31Z</time>
      </trkpt>
      <trkpt lat="43.58759" lon="5.62319">
        <ele>624.79998779297</ele>
        <time>2022-03-01T15:39:45Z</time>
      </trkpt>
      <trkpt lat="43.58754" lon="5.62338">
        <ele>623</ele>
        <time>2022-03-01T15:39:57Z</time>
      </trkpt>
      <trkpt lat="43.58748" lon="5.62372">
        <ele>619.79998779297</ele>
        <time>2022-03-01T15:40:15Z</time>
      </trkpt>
      <trkpt lat="43.58743" lon="5.62395">
        <ele>617.20001220703</ele>
        <time>2022-03-01T15:40:27Z</time>
      </trkpt>
      <trkpt lat="43.58737" lon="5.62419">
        <ele>614</ele>
        <time>2022-03-01T15:40:41Z</time>
      </trkpt>
      <trkpt lat="43.58729" lon="5.62446">
        <ele>611</ele>
        <time>2022-03-01T15:40:59Z</time>
      </trkpt>
      <trkpt lat="43.58723" lon="5.62474">
        <ele>608.20001220703</ele>
        <time>2022-03-01T15:41:17Z</time>
      </trkpt>
      <trkpt lat="43.58719" lon="5.62496">
        <ele>605.20001220703</ele>
        <time>2022-03-01T15:41:32Z</time>
      </trkpt>
      <trkpt lat="43.58714" lon="5.6252">
        <ele>602.20001220703</ele>
        <time>2022-03-01T15:41:48Z</time>
      </trkpt>
      <trkpt lat="43.58712" lon="5.62552">
        <ele>599</ele>
        <time>2022-03-01T15:42:07Z</time>
      </trkpt>
      <trkpt lat="43.58713" lon="5.62576">
        <ele>596</ele>
        <time>2022-03-01T15:42:21Z</time>
      </trkpt>
      <trkpt lat="43.58715" lon="5.62602">
        <ele>593</ele>
        <time>2022-03-01T15:42:36Z</time>
      </trkpt>
      <trkpt lat="43.58717" lon="5.62625">
        <ele>589.79998779297</ele>
        <time>2022-03-01T15:42:50Z</time>
      </trkpt>
      <trkpt lat="43.5872" lon="5.62655">
        <ele>586.79998779297</ele>
        <time>2022-03-01T15:43:07Z</time>
      </trkpt>
      <trkpt lat="43.58723" lon="5.62684">
        <ele>584.59997558594</ele>
        <time>2022-03-01T15:43:25Z</time>
      </trkpt>
      <trkpt lat="43.58725" lon="5.62707">
        <ele>582.20001220703</ele>
        <time>2022-03-01T15:43:39Z</time>
      </trkpt>
      <trkpt lat="43.58729" lon="5.62718">
        <ele>581.59997558594</ele>
        <time>2022-03-01T15:43:46Z</time>
      </trkpt>
      <trkpt lat="43.58733" lon="5.62733">
        <ele>580.40002441406</ele>
        <time>2022-03-01T15:43:56Z</time>
      </trkpt>
      <trkpt lat="43.58733" lon="5.62739">
        <ele>580</ele>
        <time>2022-03-01T15:43:59Z</time>
      </trkpt>
      <trkpt lat="43.58736" lon="5.62748">
        <ele>579.59997558594</ele>
        <time>2022-03-01T15:44:05Z</time>
      </trkpt>
      <trkpt lat="43.58738" lon="5.62762">
        <ele>578.20001220703</ele>
        <time>2022-03-01T15:44:13Z</time>
      </trkpt>
      <trkpt lat="43.58749" lon="5.628">
        <ele>575.20001220703</ele>
        <time>2022-03-01T15:44:35Z</time>
      </trkpt>
      <trkpt lat="43.58761" lon="5.62832">
        <ele>574</ele>
        <time>2022-03-01T15:44:53Z</time>
      </trkpt>
      <trkpt lat="43.58772" lon="5.62861">
        <ele>572.20001220703</ele>
        <time>2022-03-01T15:45:10Z</time>
      </trkpt>
      <trkpt lat="43.58788" lon="5.62882">
        <ele>571.40002441406</ele>
        <time>2022-03-01T15:45:26Z</time>
      </trkpt>
      <trkpt lat="43.58805" lon="5.62907">
        <ele>569.20001220703</ele>
        <time>2022-03-01T15:45:44Z</time>
      </trkpt>
      <trkpt lat="43.58817" lon="5.62929">
        <ele>567.59997558594</ele>
        <time>2022-03-01T15:46:00Z</time>
      </trkpt>
      <trkpt lat="43.58829" lon="5.62948">
        <ele>565.59997558594</ele>
        <time>2022-03-01T15:46:14Z</time>
      </trkpt>
      <trkpt lat="43.58841" lon="5.62967">
        <ele>564</ele>
        <time>2022-03-01T15:46:28Z</time>
      </trkpt>
      <trkpt lat="43.58846" lon="5.62977">
        <ele>562.79998779297</ele>
        <time>2022-03-01T15:46:34Z</time>
      </trkpt>
      <trkpt lat="43.58851" lon="5.62987">
        <ele>562</ele>
        <time>2022-03-01T15:46:40Z</time>
      </trkpt>
      <trkpt lat="43.58864" lon="5.63016">
        <ele>559.40002441406</ele>
        <time>2022-03-01T15:47:00Z</time>
      </trkpt>
      <trkpt lat="43.58873" lon="5.63038">
        <ele>557.20001220703</ele>
        <time>2022-03-01T15:47:14Z</time>
      </trkpt>
      <trkpt lat="43.58881" lon="5.63058">
        <ele>555.79998779297</ele>
        <time>2022-03-01T15:47:27Z</time>
      </trkpt>
      <trkpt lat="43.58882" lon="5.63064">
        <ele>555.40002441406</ele>
        <time>2022-03-01T15:47:31Z</time>
      </trkpt>
      <trkpt lat="43.58892" lon="5.6309">
        <ele>553.59997558594</ele>
        <time>2022-03-01T15:47:47Z</time>
      </trkpt>
      <trkpt lat="43.58894" lon="5.63098">
        <ele>553.20001220703</ele>
        <time>2022-03-01T15:47:52Z</time>
      </trkpt>
      <trkpt lat="43.5891" lon="5.63122">
        <ele>551</ele>
        <time>2022-03-01T15:48:09Z</time>
      </trkpt>
      <trkpt lat="43.58922" lon="5.63147">
        <ele>547.79998779297</ele>
        <time>2022-03-01T15:48:28Z</time>
      </trkpt>
      <trkpt lat="43.58928" lon="5.63154">
        <ele>547.20001220703</ele>
        <time>2022-03-01T15:48:34Z</time>
      </trkpt>
      <trkpt lat="43.58937" lon="5.63179">
        <ele>544.20001220703</ele>
        <time>2022-03-01T15:48:49Z</time>
      </trkpt>
      <trkpt lat="43.58945" lon="5.63199">
        <ele>542.20001220703</ele>
        <time>2022-03-01T15:49:03Z</time>
      </trkpt>
      <trkpt lat="43.58949" lon="5.63203">
        <ele>541.40002441406</ele>
        <time>2022-03-01T15:49:07Z</time>
      </trkpt>
      <trkpt lat="43.58962" lon="5.63222">
        <ele>538.20001220703</ele>
        <time>2022-03-01T15:49:22Z</time>
      </trkpt>
      <trkpt lat="43.58965" lon="5.63225">
        <ele>537.40002441406</ele>
        <time>2022-03-01T15:49:25Z</time>
      </trkpt>
      <trkpt lat="43.58967" lon="5.63231">
        <ele>536.40002441406</ele>
        <time>2022-03-01T15:49:30Z</time>
      </trkpt>
      <trkpt lat="43.58984" lon="5.63249">
        <ele>534.40002441406</ele>
        <time>2022-03-01T15:49:47Z</time>
      </trkpt>
      <trkpt lat="43.58986" lon="5.63276">
        <ele>531.79998779297</ele>
        <time>2022-03-01T15:50:04Z</time>
      </trkpt>
      <trkpt lat="43.58978" lon="5.63295">
        <ele>529</ele>
        <time>2022-03-01T15:50:21Z</time>
      </trkpt>
      <trkpt lat="43.58977" lon="5.63296">
        <ele>528.40002441406</ele>
        <time>2022-03-01T15:50:26Z</time>
      </trkpt>
      <trkpt lat="43.58971" lon="5.63304">
        <ele>528.40002441406</ele>
        <time>2022-03-01T15:50:41Z</time>
      </trkpt>
      <trkpt lat="43.5897" lon="5.63304">
        <ele>528.40002441406</ele>
        <time>2022-03-01T15:50:42Z</time>
      </trkpt>
      <trkpt lat="43.58965" lon="5.63311">
        <ele>528.20001220703</ele>
        <time>2022-03-01T15:50:49Z</time>
      </trkpt>
      <trkpt lat="43.58967" lon="5.63327">
        <ele>525.79998779297</ele>
        <time>2022-03-01T15:51:05Z</time>
      </trkpt>
      <trkpt lat="43.58974" lon="5.6333">
        <ele>524.40002441406</ele>
        <time>2022-03-01T15:51:12Z</time>
      </trkpt>
      <trkpt lat="43.58981" lon="5.63341">
        <ele>523</ele>
        <time>2022-03-01T15:51:21Z</time>
      </trkpt>
      <trkpt lat="43.58978" lon="5.63348">
        <ele>522</ele>
        <time>2022-03-01T15:51:26Z</time>
      </trkpt>
      <trkpt lat="43.5896" lon="5.63354">
        <ele>519.59997558594</ele>
        <time>2022-03-01T15:51:44Z</time>
      </trkpt>
      <trkpt lat="43.58958" lon="5.63355">
        <ele>519.40002441406</ele>
        <time>2022-03-01T15:51:46Z</time>
      </trkpt>
      <trkpt lat="43.58956" lon="5.63362">
        <ele>518.79998779297</ele>
        <time>2022-03-01T15:51:50Z</time>
      </trkpt>
      <trkpt lat="43.58956" lon="5.63367">
        <ele>518.40002441406</ele>
        <time>2022-03-01T15:51:53Z</time>
      </trkpt>
      <trkpt lat="43.58962" lon="5.63376">
        <ele>517.20001220703</ele>
        <time>2022-03-01T15:52:00Z</time>
      </trkpt>
      <trkpt lat="43.58972" lon="5.634">
        <ele>513.59997558594</ele>
        <time>2022-03-01T15:52:15Z</time>
      </trkpt>
      <trkpt lat="43.5898" lon="5.63424">
        <ele>511</ele>
        <time>2022-03-01T15:52:30Z</time>
      </trkpt>
      <trkpt lat="43.58992" lon="5.6344">
        <ele>507.60000610352</ele>
        <time>2022-03-01T15:52:46Z</time>
      </trkpt>
      <trkpt lat="43.59009" lon="5.63437">
        <ele>504.60000610352</ele>
        <time>2022-03-01T15:53:01Z</time>
      </trkpt>
      <trkpt lat="43.59024" lon="5.63434">
        <ele>501.60000610352</ele>
        <time>2022-03-01T15:53:13Z</time>
      </trkpt>
      <trkpt lat="43.59044" lon="5.63432">
        <ele>498.79998779297</ele>
        <time>2022-03-01T15:53:30Z</time>
      </trkpt>
      <trkpt lat="43.59063" lon="5.63436">
        <ele>495.79998779297</ele>
        <time>2022-03-01T15:53:44Z</time>
      </trkpt>
      <trkpt lat="43.59079" lon="5.63456">
        <ele>492.60000610352</ele>
        <time>2022-03-01T15:54:01Z</time>
      </trkpt>
      <trkpt lat="43.59097" lon="5.63486">
        <ele>490.20001220703</ele>
        <time>2022-03-01T15:54:23Z</time>
      </trkpt>
      <trkpt lat="43.59109" lon="5.63502">
        <ele>488.39999389648</ele>
        <time>2022-03-01T15:54:38Z</time>
      </trkpt>
      <trkpt lat="43.5912" lon="5.63519">
        <ele>486.20001220703</ele>
        <time>2022-03-01T15:54:53Z</time>
      </trkpt>
      <trkpt lat="43.59128" lon="5.63536">
        <ele>483.60000610352</ele>
        <time>2022-03-01T15:55:06Z</time>
      </trkpt>
      <trkpt lat="43.59132" lon="5.63544">
        <ele>482.60000610352</ele>
        <time>2022-03-01T15:55:11Z</time>
      </trkpt>
      <trkpt lat="43.59134" lon="5.63553">
        <ele>481.20001220703</ele>
        <time>2022-03-01T15:55:17Z</time>
      </trkpt>
      <trkpt lat="43.59146" lon="5.63571">
        <ele>480.39999389648</ele>
        <time>2022-03-01T15:55:32Z</time>
      </trkpt>
      <trkpt lat="43.59161" lon="5.63589">
        <ele>482.20001220703</ele>
        <time>2022-03-01T15:55:49Z</time>
      </trkpt>
      <trkpt lat="43.59173" lon="5.63619">
        <ele>482.39999389648</ele>
        <time>2022-03-01T15:56:08Z</time>
      </trkpt>
      <trkpt lat="43.59189" lon="5.63648">
        <ele>480.60000610352</ele>
        <time>2022-03-01T15:56:29Z</time>
      </trkpt>
      <trkpt lat="43.59196" lon="5.6366">
        <ele>478.79998779297</ele>
        <time>2022-03-01T15:56:38Z</time>
      </trkpt>
      <trkpt lat="43.592" lon="5.63665">
        <ele>478.39999389648</ele>
        <time>2022-03-01T15:56:43Z</time>
      </trkpt>
      <trkpt lat="43.59203" lon="5.63671">
        <ele>478.20001220703</ele>
        <time>2022-03-01T15:56:48Z</time>
      </trkpt>
      <trkpt lat="43.59212" lon="5.63704">
        <ele>475</ele>
        <time>2022-03-01T15:57:08Z</time>
      </trkpt>
      <trkpt lat="43.59213" lon="5.63733">
        <ele>472.79998779297</ele>
        <time>2022-03-01T15:57:26Z</time>
      </trkpt>
      <trkpt lat="43.59207" lon="5.6378">
        <ele>470.39999389648</ele>
        <time>2022-03-01T15:57:53Z</time>
      </trkpt>
      <trkpt lat="43.59199" lon="5.63804">
        <ele>469.39999389648</ele>
        <time>2022-03-01T15:58:10Z</time>
      </trkpt>
      <trkpt lat="43.59189" lon="5.63819">
        <ele>468</ele>
        <time>2022-03-01T15:58:24Z</time>
      </trkpt>
      <trkpt lat="43.5917" lon="5.63834">
        <ele>466.39999389648</ele>
        <time>2022-03-01T15:58:43Z</time>
      </trkpt>
      <trkpt lat="43.59161" lon="5.63863">
        <ele>465.39999389648</ele>
        <time>2022-03-01T15:59:01Z</time>
      </trkpt>
      <trkpt lat="43.59159" lon="5.63896">
        <ele>464</ele>
        <time>2022-03-01T15:59:20Z</time>
      </trkpt>
      <trkpt lat="43.59157" lon="5.63938">
        <ele>462.39999389648</ele>
        <time>2022-03-01T15:59:44Z</time>
      </trkpt>
      <trkpt lat="43.59159" lon="5.6395">
        <ele>461.79998779297</ele>
        <time>2022-03-01T15:59:51Z</time>
      </trkpt>
      <trkpt lat="43.59167" lon="5.63976">
        <ele>459.79998779297</ele>
        <time>2022-03-01T16:00:07Z</time>
      </trkpt>
      <trkpt lat="43.59183" lon="5.63997">
        <ele>457.79998779297</ele>
        <time>2022-03-01T16:00:24Z</time>
      </trkpt>
      <trkpt lat="43.59204" lon="5.64014">
        <ele>454.79998779297</ele>
        <time>2022-03-01T16:00:44Z</time>
      </trkpt>
      <trkpt lat="43.59218" lon="5.64034">
        <ele>452</ele>
        <time>2022-03-01T16:01:00Z</time>
      </trkpt>
      <trkpt lat="43.59229" lon="5.64059">
        <ele>450.60000610352</ele>
        <time>2022-03-01T16:01:17Z</time>
      </trkpt>
      <trkpt lat="43.59236" lon="5.64092">
        <ele>448.39999389648</ele>
        <time>2022-03-01T16:01:37Z</time>
      </trkpt>
      <trkpt lat="43.59239" lon="5.64118">
        <ele>446.20001220703</ele>
        <time>2022-03-01T16:01:54Z</time>
      </trkpt>
      <trkpt lat="43.59239" lon="5.64123">
        <ele>445.79998779297</ele>
        <time>2022-03-01T16:01:57Z</time>
      </trkpt>
      <trkpt lat="43.59227" lon="5.64155">
        <ele>443.20001220703</ele>
        <time>2022-03-01T16:02:18Z</time>
      </trkpt>
      <trkpt lat="43.5921" lon="5.64174">
        <ele>440.79998779297</ele>
        <time>2022-03-01T16:02:36Z</time>
      </trkpt>
      <trkpt lat="43.59194" lon="5.64183">
        <ele>438.60000610352</ele>
        <time>2022-03-01T16:02:51Z</time>
      </trkpt>
      <trkpt lat="43.59172" lon="5.64197">
        <ele>435.20001220703</ele>
        <time>2022-03-01T16:03:10Z</time>
      </trkpt>
      <trkpt lat="43.59157" lon="5.64206">
        <ele>433</ele>
        <time>2022-03-01T16:03:24Z</time>
      </trkpt>
      <trkpt lat="43.59137" lon="5.64218">
        <ele>431.20001220703</ele>
        <time>2022-03-01T16:03:42Z</time>
      </trkpt>
      <trkpt lat="43.59123" lon="5.64226">
        <ele>430</ele>
        <time>2022-03-01T16:03:54Z</time>
      </trkpt>
      <trkpt lat="43.59118" lon="5.6423">
        <ele>429.39999389648</ele>
        <time>2022-03-01T16:03:59Z</time>
      </trkpt>
      <trkpt lat="43.59102" lon="5.64247">
        <ele>427.79998779297</ele>
        <time>2022-03-01T16:04:14Z</time>
      </trkpt>
      <trkpt lat="43.591" lon="5.6426">
        <ele>427.20001220703</ele>
        <time>2022-03-01T16:04:33Z</time>
      </trkpt>
      <trkpt lat="43.59101" lon="5.6426">
        <ele>427</ele>
        <time>2022-03-01T16:05:01Z</time>
      </trkpt>
      <trkpt lat="43.59096" lon="5.64258">
        <ele>427.20001220703</ele>
        <time>2022-03-01T16:05:35Z</time>
      </trkpt>
    </trkseg>
  </trk>
</gpx>